Observation data for Amarillo 7 South Southeast on 01/19/2019      Previous  Date  Next       Current Mesonet Observations  Soil Data  Daily Summary Page  Observations in Plain Language
KAM1 190600Z 34020G26KT M00/M03 A3006 RMK A01 T10041026  RH  085%=      5-min Rain = 0
KAM1 190601Z 34025KT M00/M03 A3006 RMK A01 T10041026  RH  085%=      5-min Rain = 0
KAM1 190602Z 34021KT M00/M03 A3006 RMK A01 T10041027  RH  084%=      5-min Rain = 0
KAM1 190603Z 34021G29KT M00/M03 A3006 RMK A01 T10041027  RH  084%=      5-min Rain = 0
KAM1 190604Z 34027G32KT M00/M03 A3006 RMK A01 T10031027  RH  084%=      5-min Rain = 0
KAM1 190605Z 35025G35KT M00/M03 A3006 RMK A01 T10041028  RH  084%=      5-min Rain = 0
KAM1 190606Z 35023KT M00/M03 A3006 RMK A01 T10041028  RH  084%=      5-min Rain = 0
KAM1 190607Z 34025KT M00/M03 A3006 RMK A01 T10041028  RH  084%=      5-min Rain = 0
KAM1 190608Z 34022G28KT M00/M03 A3006 RMK A01 T10041028  RH  084%=      5-min Rain = 0
KAM1 190609Z 35021G27KT M00/M03 A3006 RMK A01 T10041028  RH  084%=      5-min Rain = 0
KAM1 190610Z 34026KT M00/M03 A3006 RMK A01 T10041028  RH  084%=      5-min Rain = 0
KAM1 190611Z 34020KT M00/M03 A3006 RMK A01 T10041028  RH  084%=      5-min Rain = 0
KAM1 190612Z 34018KT M00/M03 A3006 RMK A01 T10041028  RH  084%=      5-min Rain = 0
KAM1 190613Z 34026G32KT M00/M03 A3007 RMK A01 T10041028  RH  084%=      5-min Rain = 0
KAM1 190614Z 35022G31KT M00/M03 A3007 RMK A01 T10041029  RH  084%=      5-min Rain = 0
KAM1 190615Z 35021G26KT M01/M03 A3007 RMK A01 T10051030  RH  083%=      5-min Rain = 0
KAM1 190616Z 35023G29KT M01/M03 A3007 RMK A01 T10061031  RH  083%=      5-min Rain = 0
KAM1 190617Z 34021G30KT M01/M03 A3007 RMK A01 T10061031  RH  083%=      5-min Rain = 0
KAM1 190618Z 34026KT M01/M03 A3007 RMK A01 T10061032  RH  083%=      5-min Rain = 0
KAM1 190619Z 35023KT M01/M03 A3007 RMK A01 T10061033  RH  082%=      5-min Rain = 0
KAM1 190620Z 35019KT M01/M03 A3007 RMK A01 T10071033  RH  083%=      5-min Rain = 0
KAM1 190621Z 35019KT M01/M03 A3007 RMK A01 T10071033  RH  083%=      5-min Rain = 0
KAM1 190622Z 35018G24KT M01/M03 A3007 RMK A01 T10081032  RH  084%=      5-min Rain = 0
KAM1 190623Z 35022KT M01/M03 A3007 RMK A01 T10081032  RH  084%=      5-min Rain = 0
KAM1 190624Z 34017KT M01/M03 A3007 RMK A01 T10081031  RH  084%=      5-min Rain = 0
KAM1 190625Z 34019KT M01/M03 A3007 RMK A01 T10071030  RH  084%=      5-min Rain = 0
KAM1 190626Z 34023KT M01/M03 A3007 RMK A01 T10071029  RH  085%=      5-min Rain = 0
KAM1 190627Z 34026KT M01/M03 A3007 RMK A01 T10071030  RH  084%=      5-min Rain = 0
KAM1 190628Z 35022G29KT M01/M03 A3007 RMK A01 T10071031  RH  084%=      5-min Rain = 0
KAM1 190629Z 35021G27KT M01/M03 A3008 RMK A01 T10071031  RH  083%=      5-min Rain = 0
KAM1 190630Z 34023G29KT M01/M03 A3007 RMK A01 T10071032  RH  083%=      5-min Rain = 0
KAM1 190631Z 34025KT M01/M03 A3007 RMK A01 T10081033  RH  083%=      5-min Rain = 0
KAM1 190632Z 35022KT M01/M03 A3008 RMK A01 T10081033  RH  083%=      5-min Rain = 0
KAM1 190633Z 35024G30KT M01/M03 A3008 RMK A01 T10091034  RH  083%=      5-min Rain = 0
KAM1 190634Z 34023G29KT M01/M04 A3008 RMK A01 T10091035  RH  083%=      5-min Rain = 0
KAM1 190635Z 34023G28KT M01/M04 A3008 RMK A01 T10101036  RH  082%=      5-min Rain = 0
KAM1 190636Z 35024KT M01/M04 A3008 RMK A01 T10101037  RH  082%=      5-min Rain = 0
KAM1 190637Z 34021KT M01/M04 A3008 RMK A01 T10101038  RH  082%=      5-min Rain = 0
KAM1 190638Z 35024G30KT M01/M04 A3008 RMK A01 T10111039  RH  081%=      5-min Rain = 0
KAM1 190639Z 35022G27KT M01/M04 A3009 RMK A01 T10111039  RH  081%=      5-min Rain = 0
KAM1 190640Z 35022G29KT M01/M04 A3009 RMK A01 T10121040  RH  081%=      5-min Rain = 0
KAM1 190641Z 34018KT M01/M04 A3009 RMK A01 T10121039  RH  082%=      5-min Rain = 0
KAM1 190642Z 34018KT M01/M04 A3009 RMK A01 T10121039  RH  082%=      5-min Rain = 0
KAM1 190643Z 34020G27KT M01/M04 A3008 RMK A01 T10131039  RH  083%=      5-min Rain = 0
KAM1 190644Z 34025G30KT M01/M04 A3009 RMK A01 T10131038  RH  083%=      5-min Rain = 0
KAM1 190645Z 34022G30KT M01/M04 A3009 RMK A01 T10131039  RH  082%=      5-min Rain = 0
KAM1 190646Z 34020KT M01/M04 A3009 RMK A01 T10131039  RH  083%=      5-min Rain = 0
KAM1 190647Z 35016G21KT M01/M04 A3009 RMK A01 T10131038  RH  083%=      5-min Rain = 0
KAM1 190648Z 34017G22KT M01/M04 A3009 RMK A01 T10141039  RH  083%=      5-min Rain = 0
KAM1 190649Z 34023G32KT M01/M04 A3009 RMK A01 T10141039  RH  083%=      5-min Rain = 0
KAM1 190650Z 34023G29KT M01/M04 A3009 RMK A01 T10141040  RH  083%=      5-min Rain = 0
KAM1 190651Z 35019G27KT M01/M04 A3009 RMK A01 T10141040  RH  083%=      5-min Rain = 0
KAM1 190652Z 34019KT M01/M04 A3009 RMK A01 T10141040  RH  083%=      5-min Rain = 0
KAM1 190653Z 34019KT M02/M04 A3009 RMK A01 T10151040  RH  083%=      5-min Rain = 0
KAM1 190654Z 34020G25KT M02/M04 A3009 RMK A01 T10151040  RH  083%=      5-min Rain = 0
KAM1 190655Z 34021G27KT M02/M04 A3009 RMK A01 T10151041  RH  083%=      5-min Rain = 0
KAM1 190656Z 34022KT M02/M04 A3009 RMK A01 T10151041  RH  083%=      5-min Rain = 0
KAM1 190657Z 34023G29KT M02/M04 A3009 RMK A01 T10151041  RH  083%=      5-min Rain = 0
KAM1 190658Z 34022KT M02/M04 A3009 RMK A01 T10151041  RH  082%=      5-min Rain = 0
KAM1 190659Z 34024G29KT M02/M04 A3009 RMK A01 T10151041  RH  082%=      5-min Rain = 0
KAM1 190700Z 34022G27KT M02/M04 A3009 RMK A01 T10151041  RH  082%=      5-min Rain = 0
KAM1 190701Z 34019KT M02/M04 A3009 RMK A01 T10151041  RH  082%=      5-min Rain = 0
KAM1 190702Z 34022G28KT M02/M04 A3009 RMK A01 T10151041  RH  082%=      5-min Rain = 0
KAM1 190703Z 34022KT M02/M04 A3009 RMK A01 T10151042  RH  082%=      5-min Rain = 0
KAM1 190704Z 34025KT M02/M04 A3009 RMK A01 T10151042  RH  082%=      5-min Rain = 0
KAM1 190705Z 33024KT M02/M04 A3009 RMK A01 T10151042  RH  082%=      5-min Rain = 0
KAM1 190706Z 34023G29KT M02/M04 A3009 RMK A01 T10151043  RH  081%=      5-min Rain = 0
KAM1 190707Z 34020G26KT M02/M04 A301 RMK A01 T10161043  RH  081%=      5-min Rain = 0
KAM1 190708Z 33021G31KT M02/M04 A301 RMK A01 T10161044  RH  081%=      5-min Rain = 0
KAM1 190709Z 34025G30KT M02/M05 A301 RMK A01 T10171045  RH  081%=      5-min Rain = 0
KAM1 190710Z 34023G28KT M02/M05 A301 RMK A01 T10161045  RH  081%=      5-min Rain = 0
KAM1 190711Z 34024KT M02/M05 A301 RMK A01 T10161045  RH  081%=      5-min Rain = 0
KAM1 190712Z 34019G26KT M02/M05 A301 RMK A01 T10171046  RH  081%=      5-min Rain = 0
KAM1 190713Z 34018G24KT M02/M05 A301 RMK A01 T10171046  RH  081%=      5-min Rain = 0
KAM1 190714Z 34018KT M02/M05 A301 RMK A01 T10181046  RH  081%=      5-min Rain = 0
KAM1 190715Z 34016KT M02/M05 A301 RMK A01 T10181046  RH  081%=      5-min Rain = 0
KAM1 190716Z 34015KT M02/M05 A301 RMK A01 T10191047  RH  081%=      5-min Rain = 0
KAM1 190717Z 34021G33KT M02/M05 A301 RMK A01 T10201047  RH  082%=      5-min Rain = 0
KAM1 190718Z 34023G30KT M02/M05 A301 RMK A01 T10191047  RH  082%=      5-min Rain = 0
KAM1 190719Z 34021KT M02/M05 A301 RMK A01 T10191047  RH  081%=      5-min Rain = 0
KAM1 190720Z 34020G26KT M02/M05 A301 RMK A01 T10181047  RH  081%=      5-min Rain = 0
KAM1 190721Z 34021G27KT M02/M05 A301 RMK A01 T10181047  RH  081%=      5-min Rain = 0
KAM1 190722Z 34019G25KT M02/M05 A301 RMK A01 T10181047  RH  081%=      5-min Rain = 0
KAM1 190723Z 34020G25KT M02/M05 A301 RMK A01 T10181047  RH  081%=      5-min Rain = 0
KAM1 190724Z 35022G29KT M02/M05 A301 RMK A01 T10181047  RH  081%=      5-min Rain = 0
KAM1 190725Z 35023G28KT M02/M05 A301 RMK A01 T10181047  RH  081%=      5-min Rain = 0
KAM1 190726Z 34018KT M02/M05 A301 RMK A01 T10181047  RH  081%=      5-min Rain = 0
KAM1 190727Z 34019G25KT M02/M05 A301 RMK A01 T10181047  RH  081%=      5-min Rain = 0
KAM1 190728Z 34021KT M02/M05 A301 RMK A01 T10181047  RH  081%=      5-min Rain = 0
KAM1 190729Z 34018G27KT M02/M05 A301 RMK A01 T10181047  RH  081%=      5-min Rain = 0
KAM1 190730Z 34020G28KT M02/M05 A301 RMK A01 T10191047  RH  081%=      5-min Rain = 0
KAM1 190731Z 35021G27KT M02/M05 A301 RMK A01 T10191048  RH  081%=      5-min Rain = 0
KAM1 190732Z 34020KT M02/M05 A301 RMK A01 T10191048  RH  080%=      5-min Rain = 0
KAM1 190733Z 34020KT M02/M05 A301 RMK A01 T10191048  RH  080%=      5-min Rain = 0
KAM1 190734Z 34026KT M02/M05 A301 RMK A01 T10191048  RH  080%=      5-min Rain = 0
KAM1 190735Z 34023KT M02/M05 A301 RMK A01 T10181048  RH  080%=      5-min Rain = 0
KAM1 190736Z 34021KT M02/M05 A301 RMK A01 T10181048  RH  080%=      5-min Rain = 0
KAM1 190737Z 34019KT M02/M05 A301 RMK A01 T10181048  RH  080%=      5-min Rain = 0
KAM1 190738Z 34019G25KT M02/M05 A301 RMK A01 T10191048  RH  080%=      5-min Rain = 0
KAM1 190739Z 34020KT M02/M05 A301 RMK A01 T10191048  RH  080%=      5-min Rain = 0
KAM1 190740Z 35018KT M02/M05 A3011 RMK A01 T10191048  RH  080%=      5-min Rain = 0
KAM1 190741Z 34020KT M02/M05 A301 RMK A01 T10201048  RH  081%=      5-min Rain = 0
KAM1 190742Z 34019KT M02/M05 A301 RMK A01 T10201048  RH  081%=      5-min Rain = 0
KAM1 190743Z 34020KT M02/M05 A3011 RMK A01 T10191047  RH  081%=      5-min Rain = 0
KAM1 190744Z 34017G23KT M02/M05 A3011 RMK A01 T10191047  RH  081%=      5-min Rain = 0
KAM1 190745Z 34019G25KT M02/M05 A3011 RMK A01 T10191047  RH  082%=      5-min Rain = 0
KAM1 190746Z 34017KT M02/M05 A3011 RMK A01 T10191046  RH  082%=      5-min Rain = 0
KAM1 190747Z 34019KT M02/M05 A3011 RMK A01 T10191046  RH  082%=      5-min Rain = 0
KAM1 190748Z 34019G24KT M02/M05 A3011 RMK A01 T10191045  RH  082%=      5-min Rain = 0
KAM1 190749Z 35017G22KT M02/M05 A3011 RMK A01 T10191046  RH  082%=      5-min Rain = 0
KAM1 190750Z 35018KT M02/M05 A3011 RMK A01 T10191046  RH  082%=      5-min Rain = 0
KAM1 190751Z 34021G26KT M02/M05 A3011 RMK A01 T10201046  RH  082%=      5-min Rain = 0
KAM1 190752Z 35017G22KT M02/M05 A3011 RMK A01 T10201046  RH  082%=      5-min Rain = 0
KAM1 190753Z 34016KT M02/M05 A3011 RMK A01 T10191046  RH  082%=      5-min Rain = 0
KAM1 190754Z 34017KT M02/M05 A3011 RMK A01 T10191046  RH  082%=      5-min Rain = 0
KAM1 190755Z 35020G28KT M02/M05 A3011 RMK A01 T10201045  RH  083%=      5-min Rain = 0
KAM1 190756Z 34022G27KT M02/M05 A3011 RMK A01 T10201045  RH  083%=      5-min Rain = 0
KAM1 190757Z 34022KT M02/M05 A3011 RMK A01 T10201045  RH  083%=      5-min Rain = 0
KAM1 190758Z 34020G25KT M02/M05 A3011 RMK A01 T10191045  RH  083%=      5-min Rain = 0
KAM1 190759Z 35018KT M02/M05 A3011 RMK A01 T10191045  RH  083%=      5-min Rain = 0
KAM1 190800Z 34023KT M02/M05 A3011 RMK A01 T10191045  RH  082%=      5-min Rain = 0
KAM1 190801Z 34022G28KT M02/M05 A3011 RMK A01 T10191045  RH  082%=      5-min Rain = 0
KAM1 190802Z 35024KT M02/M05 A3011 RMK A01 T10191045  RH  082%=      5-min Rain = 0
KAM1 190803Z 34020KT M02/M05 A3011 RMK A01 T10191046  RH  082%=      5-min Rain = 0
KAM1 190804Z 34018G24KT M02/M05 A3011 RMK A01 T10191046  RH  082%=      5-min Rain = 0
KAM1 190805Z 34020KT M02/M05 A3012 RMK A01 T10191046  RH  082%=      5-min Rain = 0
KAM1 190806Z 34024G29KT M02/M05 A3011 RMK A01 T10201047  RH  082%=      5-min Rain = 0
KAM1 190807Z 34024KT M02/M05 A3011 RMK A01 T10191047  RH  081%=      5-min Rain = 0
KAM1 190808Z 34022G27KT M02/M05 A3012 RMK A01 T10191047  RH  081%=      5-min Rain = 0
KAM1 190809Z 34023KT M02/M05 A3012 RMK A01 T10191047  RH  081%=      5-min Rain = 0
KAM1 190810Z 34024KT M02/M05 A3012 RMK A01 T10191047  RH  082%=      5-min Rain = 0
KAM1 190811Z 34020KT M02/M05 A3012 RMK A01 T10191047  RH  081%=      5-min Rain = 0
KAM1 190812Z 33015KT M02/M05 A3012 RMK A01 T10191046  RH  082%=      5-min Rain = 0
KAM1 190813Z 33017G22KT M02/M05 A3012 RMK A01 T10191045  RH  083%=      5-min Rain = 0
KAM1 190814Z 34017KT M02/M04 A3012 RMK A01 T10191044  RH  083%=      5-min Rain = 0
KAM1 190815Z 33018KT M02/M04 A3012 RMK A01 T10201044  RH  084%=      5-min Rain = 0
KAM1 190816Z 34020G25KT M02/M04 A3012 RMK A01 T10191043  RH  084%=      5-min Rain = 0
KAM1 190817Z 33020G25KT M02/M04 A3012 RMK A01 T10201044  RH  084%=      5-min Rain = 0
KAM1 190818Z 34020KT M02/M04 A3013 RMK A01 T10201044  RH  083%=      5-min Rain = 0
KAM1 190819Z 33019KT M02/M05 A3013 RMK A01 T10201045  RH  083%=      5-min Rain = 0
KAM1 190820Z 34022KT M02/M05 A3012 RMK A01 T10211046  RH  083%=      5-min Rain = 0
KAM1 190821Z 34020G26KT M02/M05 A3013 RMK A01 T10211047  RH  083%=      5-min Rain = 0
KAM1 190822Z 34020G28KT M02/M05 A3013 RMK A01 T10211047  RH  082%=      5-min Rain = 0
KAM1 190823Z 35022G27KT M02/M05 A3013 RMK A01 T10211048  RH  082%=      5-min Rain = 0
KAM1 190824Z 35022KT M02/M05 A3013 RMK A01 T10221048  RH  082%=      5-min Rain = 0
KAM1 190825Z 33019G24KT M02/M05 A3013 RMK A01 T10221049  RH  082%=      5-min Rain = 0
KAM1 190826Z 33021G27KT M02/M05 A3013 RMK A01 T10221050  RH  082%=      5-min Rain = 0
KAM1 190827Z 34018G26KT M02/M05 A3013 RMK A01 T10231050  RH  082%=      5-min Rain = 0
KAM1 190828Z 35020G28KT M02/M05 A3013 RMK A01 T10231050  RH  082%=      5-min Rain = 0
KAM1 190829Z 35023G28KT M02/M05 A3013 RMK A01 T10241050  RH  082%=      5-min Rain = 0
KAM1 190830Z 34020G25KT M02/M05 A3013 RMK A01 T10231050  RH  082%=      5-min Rain = 0
KAM1 190831Z 35022KT M02/M05 A3013 RMK A01 T10241050  RH  082%=      5-min Rain = 0
KAM1 190832Z 34021KT M02/M05 A3013 RMK A01 T10241051  RH  082%=      5-min Rain = 0
KAM1 190833Z 34019G27KT M02/M05 A3013 RMK A01 T10241051  RH  082%=      5-min Rain = 0
KAM1 190834Z 34024G31KT M02/M05 A3013 RMK A01 T10241051  RH  082%=      5-min Rain = 0
KAM1 190835Z 35024KT M02/M05 A3013 RMK A01 T10241051  RH  082%=      5-min Rain = 0
KAM1 190836Z 35023G28KT M02/M05 A3013 RMK A01 T10241052  RH  082%=      5-min Rain = 0
KAM1 190837Z 34019G26KT M02/M05 A3013 RMK A01 T10241051  RH  082%=      5-min Rain = 0
KAM1 190838Z 34021KT M03/M05 A3013 RMK A01 T10251052  RH  082%=      5-min Rain = 0
KAM1 190839Z 34026G31KT M03/M05 A3013 RMK A01 T10251052  RH  082%=      5-min Rain = 0
KAM1 190840Z 35023KT M03/M05 A3013 RMK A01 T10261053  RH  082%=      5-min Rain = 0
KAM1 190841Z 34019G25KT M03/M05 A3013 RMK A01 T10261053  RH  082%=      5-min Rain = 0
KAM1 190842Z 34023G29KT M03/M05 A3013 RMK A01 T10261053  RH  082%=      5-min Rain = 0
KAM1 190843Z 34020KT M03/M05 A3013 RMK A01 T10261053  RH  082%=      5-min Rain = 0
KAM1 190844Z 34023KT M03/M05 A3013 RMK A01 T10261053  RH  082%=      5-min Rain = 0
KAM1 190845Z 34025KT M03/M05 A3013 RMK A01 T10261053  RH  082%=      5-min Rain = 0
KAM1 190846Z 34023KT M03/M05 A3013 RMK A01 T10261052  RH  082%=      5-min Rain = 0
KAM1 190847Z 34022G27KT M03/M05 A3013 RMK A01 T10261052  RH  082%=      5-min Rain = 0
KAM1 190848Z 35021KT M03/M05 A3014 RMK A01 T10261052  RH  082%=      5-min Rain = 0
KAM1 190849Z 34020KT M03/M05 A3014 RMK A01 T10261052  RH  082%=      5-min Rain = 0
KAM1 190850Z 34018G25KT M03/M05 A3013 RMK A01 T10261052  RH  083%=      5-min Rain = 0
KAM1 190851Z 35020KT M03/M05 A3014 RMK A01 T10261051  RH  083%=      5-min Rain = 0
KAM1 190852Z 34019KT M03/M05 A3014 RMK A01 T10261051  RH  083%=      5-min Rain = 0
KAM1 190853Z 35017G23KT M03/M05 A3014 RMK A01 T10261051  RH  083%=      5-min Rain = 0
KAM1 190854Z 34020KT M03/M05 A3014 RMK A01 T10261051  RH  083%=      5-min Rain = 0
KAM1 190855Z 34021KT M03/M05 A3014 RMK A01 T10271052  RH  083%=      5-min Rain = 0
KAM1 190856Z 34022KT M03/M05 A3014 RMK A01 T10261052  RH  083%=      5-min Rain = 0
KAM1 190857Z 34022KT M03/M05 A3014 RMK A01 T10261052  RH  082%=      5-min Rain = 0
KAM1 190858Z 34021KT M03/M05 A3014 RMK A01 T10261052  RH  083%=      5-min Rain = 0
KAM1 190859Z 34020KT M03/M05 A3014 RMK A01 T10261051  RH  083%=      5-min Rain = 0
KAM1 190900Z 34021G26KT M03/M05 A3014 RMK A01 T10261051  RH  083%=      5-min Rain = 0
KAM1 190901Z 34022G28KT M03/M05 A3014 RMK A01 T10261052  RH  083%=      5-min Rain = 0
KAM1 190902Z 35024G29KT M03/M05 A3014 RMK A01 T10261052  RH  082%=      5-min Rain = 0
KAM1 190903Z 34024G30KT M03/M05 A3014 RMK A01 T10261052  RH  082%=      5-min Rain = 0
KAM1 190904Z 34023G28KT M03/M05 A3014 RMK A01 T10261052  RH  082%=      5-min Rain = 0
KAM1 190905Z 34020G27KT M03/M05 A3014 RMK A01 T10261052  RH  082%=      5-min Rain = 0
KAM1 190906Z 34023G28KT M03/M05 A3014 RMK A01 T10261052  RH  082%=      5-min Rain = 0
KAM1 190907Z 34021G27KT M03/M05 A3014 RMK A01 T10261052  RH  082%=      5-min Rain = 0
KAM1 190908Z 34015KT M03/M05 A3014 RMK A01 T10261052  RH  083%=      5-min Rain = 0
KAM1 190909Z 35015G20KT M03/M05 A3014 RMK A01 T10261051  RH  083%=      5-min Rain = 0
KAM1 190910Z 35020KT M03/M05 A3014 RMK A01 T10261050  RH  083%=      5-min Rain = 0
KAM1 190911Z 34021KT M03/M05 A3014 RMK A01 T10261051  RH  083%=      5-min Rain = 0
KAM1 190912Z 34017KT M03/M05 A3014 RMK A01 T10261051  RH  083%=      5-min Rain = 0
KAM1 190913Z 34015KT M03/M05 A3014 RMK A01 T10261051  RH  083%=      5-min Rain = 0
KAM1 190914Z 34016KT M03/M05 A3014 RMK A01 T10261051  RH  083%=      5-min Rain = 0
KAM1 190915Z 34017KT M03/M05 A3015 RMK A01 T10261051  RH  084%=      5-min Rain = 0
KAM1 190916Z 33018KT M03/M05 A3014 RMK A01 T10271051  RH  083%=      5-min Rain = 0
KAM1 190917Z 34022KT M03/M05 A3014 RMK A01 T10261051  RH  083%=      5-min Rain = 0
KAM1 190918Z 33018KT M03/M05 A3014 RMK A01 T10261052  RH  083%=      5-min Rain = 0
KAM1 190919Z 34021G26KT M03/M05 A3015 RMK A01 T10261052  RH  083%=      5-min Rain = 0
KAM1 190920Z 34020G25KT M03/M05 A3015 RMK A01 T10261052  RH  083%=      5-min Rain = 0
KAM1 190921Z 34021G26KT M03/M05 A3015 RMK A01 T10261052  RH  083%=      5-min Rain = 0
KAM1 190922Z 34020KT M03/M05 A3015 RMK A01 T10271052  RH  083%=      5-min Rain = 0
KAM1 190923Z 34019KT M03/M05 A3015 RMK A01 T10261052  RH  083%=      5-min Rain = 0
KAM1 190924Z 34016KT M03/M05 A3015 RMK A01 T10271052  RH  083%=      5-min Rain = 0
KAM1 190925Z 34019KT M03/M05 A3015 RMK A01 T10271052  RH  083%=      5-min Rain = 0
KAM1 190926Z 34017G23KT M03/M05 A3015 RMK A01 T10271051  RH  083%=      5-min Rain = 0
KAM1 190927Z 35019KT M03/M05 A3015 RMK A01 T10271051  RH  083%=      5-min Rain = 0
KAM1 190928Z 34022KT M03/M05 A3015 RMK A01 T10271051  RH  083%=      5-min Rain = 0
KAM1 190929Z 34022KT M03/M05 A3014 RMK A01 T10271051  RH  083%=      5-min Rain = 0
KAM1 190930Z 35021KT M03/M05 A3015 RMK A01 T10271051  RH  083%=      5-min Rain = 0
KAM1 190931Z 34016G22KT M03/M05 A3015 RMK A01 T10271051  RH  083%=      5-min Rain = 0
KAM1 190932Z 33022G27KT M03/M05 A3014 RMK A01 T10271051  RH  083%=      5-min Rain = 0
KAM1 190933Z 34025KT M03/M05 A3014 RMK A01 T10271051  RH  083%=      5-min Rain = 0
KAM1 190934Z 34018G25KT M03/M05 A3015 RMK A01 T10261051  RH  083%=      5-min Rain = 0
KAM1 190935Z 34017G22KT M03/M05 A3015 RMK A01 T10271051  RH  083%=      5-min Rain = 0
KAM1 190936Z 34018KT M03/M05 A3015 RMK A01 T10261051  RH  083%=      5-min Rain = 0
KAM1 190937Z 34019G24KT M03/M05 A3015 RMK A01 T10271050  RH  084%=      5-min Rain = 0
KAM1 190938Z 34018G24KT M03/M05 A3015 RMK A01 T10261050  RH  084%=      5-min Rain = 0
KAM1 190939Z 34020G25KT M03/M05 A3015 RMK A01 T10261050  RH  084%=      5-min Rain = 0
KAM1 190940Z 34019KT M03/M05 A3015 RMK A01 T10271050  RH  084%=      5-min Rain = 0
KAM1 190941Z 34019G24KT M03/M05 A3015 RMK A01 T10261050  RH  084%=      5-min Rain = 0
KAM1 190942Z 33019KT M03/M05 A3015 RMK A01 T10261050  RH  084%=      5-min Rain = 0
KAM1 190943Z 33017G22KT M03/M05 A3015 RMK A01 T10261050  RH  084%=      5-min Rain = 0
KAM1 190944Z 33018KT M03/M05 A3015 RMK A01 T10261049  RH  084%=      5-min Rain = 0
KAM1 190945Z 34017G24KT M03/M05 A3015 RMK A01 T10261049  RH  084%=      5-min Rain = 0
KAM1 190946Z 34019G24KT M03/M05 A3014 RMK A01 T10261050  RH  084%=      5-min Rain = 0
KAM1 190947Z 34015KT M03/M05 A3015 RMK A01 T10261049  RH  084%=      5-min Rain = 0
KAM1 190948Z 33016G21KT M03/M05 A3015 RMK A01 T10271049  RH  084%=      5-min Rain = 0
KAM1 190949Z 34020KT M03/M05 A3014 RMK A01 T10271050  RH  085%=      5-min Rain = 0
KAM1 190950Z 33019KT M03/M05 A3014 RMK A01 T10271050  RH  085%=      5-min Rain = 0
KAM1 190951Z 33018KT M03/M05 A3014 RMK A01 T10271050  RH  085%=      5-min Rain = 0
KAM1 190952Z 34020KT M03/M05 A3014 RMK A01 T10271050  RH  084%=      5-min Rain = 0
KAM1 190953Z 34017KT M03/M05 A3015 RMK A01 T10271050  RH  084%=      5-min Rain = 0
KAM1 190954Z 34015KT M03/M05 A3015 RMK A01 T10281051  RH  084%=      5-min Rain = 0
KAM1 190955Z 34020KT M03/M05 A3015 RMK A01 T10291051  RH  085%=      5-min Rain = 0
KAM1 190956Z 34019G24KT M03/M05 A3015 RMK A01 T10291051  RH  085%=      5-min Rain = 0
KAM1 190957Z 34019KT M03/M05 A3015 RMK A01 T10291051  RH  085%=      5-min Rain = 0
KAM1 190958Z 34017KT M03/M05 A3015 RMK A01 T10281050  RH  085%=      5-min Rain = 0
KAM1 190959Z 34021KT M03/M05 A3015 RMK A01 T10281050  RH  085%=      5-min Rain = 0
KAM1 191000Z 34015G20KT M03/M05 A3015 RMK A01 T10281051  RH  085%=      5-min Rain = 0
KAM1 191001Z 33016KT M03/M05 A3015 RMK A01 T10291051  RH  085%=      5-min Rain = 0
KAM1 191002Z 34016KT M03/M05 A3015 RMK A01 T10291051  RH  085%=      5-min Rain = 0
KAM1 191003Z 33017KT M03/M05 A3015 RMK A01 T10291051  RH  085%=      5-min Rain = 0
KAM1 191004Z 33017KT M03/M05 A3015 RMK A01 T10301051  RH  085%=      5-min Rain = 0
KAM1 191005Z 33015KT M03/M05 A3015 RMK A01 T10291050  RH  085%=      5-min Rain = 0
KAM1 191006Z 33014KT M03/M05 A3015 RMK A01 T10291050  RH  085%=      5-min Rain = 0
KAM1 191007Z 33017KT M03/M05 A3015 RMK A01 T10291051  RH  085%=      5-min Rain = 0
KAM1 191008Z 33016KT M03/M05 A3015 RMK A01 T10291050  RH  086%=      5-min Rain = 0
KAM1 191009Z 34019KT M03/M05 A3015 RMK A01 T10291050  RH  086%=      5-min Rain = 0
KAM1 191010Z 34019KT M03/M05 A3016 RMK A01 T10281049  RH  086%=      5-min Rain = 0
KAM1 191011Z 34018KT M03/M05 A3015 RMK A01 T10281049  RH  086%=      5-min Rain = 0
KAM1 191012Z 33016KT M03/M05 A3015 RMK A01 T10281049  RH  086%=      5-min Rain = 0
KAM1 191013Z 34015G20KT M03/M05 A3015 RMK A01 T10281049  RH  085%=      5-min Rain = 0
KAM1 191014Z 34015KT M03/M05 A3016 RMK A01 T10271048  RH  085%=      5-min Rain = 0
KAM1 191015Z 34016G21KT M03/M05 A3016 RMK A01 T10271048  RH  086%=      5-min Rain = 0
KAM1 191016Z 33019KT M03/M05 A3016 RMK A01 T10281048  RH  086%=      5-min Rain = 0
KAM1 191017Z 34020G25KT M03/M05 A3016 RMK A01 T10271047  RH  086%=      5-min Rain = 0
KAM1 191018Z 33020KT M03/M05 A3015 RMK A01 T10261047  RH  086%=      5-min Rain = 0
KAM1 191019Z 34017KT M03/M05 A3016 RMK A01 T10271047  RH  086%=      5-min Rain = 0
KAM1 191020Z 34016G23KT M03/M05 A3016 RMK A01 T10261047  RH  086%=      5-min Rain = 0
KAM1 191021Z 33018KT M03/M05 A3016 RMK A01 T10271047  RH  086%=      5-min Rain = 0
KAM1 191022Z 34018G24KT M03/M05 A3016 RMK A01 T10271047  RH  086%=      5-min Rain = 0
KAM1 191023Z 35020G25KT M03/M05 A3016 RMK A01 T10271047  RH  086%=      5-min Rain = 0
KAM1 191024Z 34021KT M03/M05 A3016 RMK A01 T10261047  RH  086%=      5-min Rain = 0
KAM1 191025Z 33020G25KT M03/M05 A3016 RMK A01 T10271047  RH  086%=      5-min Rain = 0
KAM1 191026Z 33017KT M03/M05 A3016 RMK A01 T10271047  RH  086%=      5-min Rain = 0
KAM1 191027Z 33020KT M03/M05 A3016 RMK A01 T10271047  RH  086%=      5-min Rain = 0
KAM1 191028Z 34017KT M03/M05 A3016 RMK A01 T10271048  RH  086%=      5-min Rain = 0
KAM1 191029Z 33021KT M03/M05 A3016 RMK A01 T10271048  RH  086%=      5-min Rain = 0
KAM1 191030Z 34021KT M03/M05 A3016 RMK A01 T10271048  RH  086%=      5-min Rain = 0
KAM1 191031Z 34016KT M03/M05 A3016 RMK A01 T10271048  RH  086%=      5-min Rain = 0
KAM1 191032Z 33017G24KT M03/M05 A3016 RMK A01 T10281048  RH  086%=      5-min Rain = 0
KAM1 191033Z 33020KT M03/M05 A3016 RMK A01 T10281048  RH  086%=      5-min Rain = 0
KAM1 191034Z 33019KT M03/M05 A3016 RMK A01 T10281048  RH  086%=      5-min Rain = 0
KAM1 191035Z 33021KT M03/M05 A3016 RMK A01 T10281048  RH  086%=      5-min Rain = 0
KAM1 191036Z 34019KT M03/M05 A3016 RMK A01 T10281049  RH  086%=      5-min Rain = 0
KAM1 191037Z 33020G25KT M03/M05 A3016 RMK A01 T10281049  RH  086%=      5-min Rain = 0
KAM1 191038Z 33017KT M03/M05 A3016 RMK A01 T10281049  RH  086%=      5-min Rain = 0
KAM1 191039Z 33019KT M03/M05 A3016 RMK A01 T10291049  RH  086%=      5-min Rain = 0
KAM1 191040Z 33021G27KT M03/M05 A3016 RMK A01 T10291050  RH  086%=      5-min Rain = 0
KAM1 191041Z 33015KT M03/M05 A3016 RMK A01 T10291050  RH  086%=      5-min Rain = 0
KAM1 191042Z 34019KT M03/M05 A3016 RMK A01 T10301050  RH  086%=      5-min Rain = 0
KAM1 191043Z 34019KT M03/M05 A3016 RMK A01 T10311051  RH  086%=      5-min Rain = 0
KAM1 191044Z 33021KT M03/M05 A3016 RMK A01 T10301050  RH  086%=      5-min Rain = 0
KAM1 191045Z 33019KT M03/M05 A3016 RMK A01 T10311051  RH  086%=      5-min Rain = 0
KAM1 191046Z 33018G24KT M03/M05 A3016 RMK A01 T10311051  RH  086%=      5-min Rain = 0
KAM1 191047Z 33021KT M03/M05 A3016 RMK A01 T10321051  RH  086%=      5-min Rain = 0
KAM1 191048Z 33023G28KT M03/M05 A3016 RMK A01 T10321051  RH  086%=      5-min Rain = 0
KAM1 191049Z 33021KT M03/M05 A3016 RMK A01 T10321051  RH  086%=      5-min Rain = 0
KAM1 191050Z 33016KT M03/M05 A3016 RMK A01 T10321051  RH  086%=      5-min Rain = 0
KAM1 191051Z 33020KT M03/M05 A3016 RMK A01 T10321052  RH  086%=      5-min Rain = 0
KAM1 191052Z 33017G22KT M03/M05 A3016 RMK A01 T10331052  RH  086%=      5-min Rain = 0
KAM1 191053Z 33019KT M03/M05 A3016 RMK A01 T10331052  RH  087%=      5-min Rain = 0
KAM1 191054Z 33020KT M03/M05 A3016 RMK A01 T10331052  RH  087%=      5-min Rain = 0
KAM1 191055Z 33016KT M03/M05 A3016 RMK A01 T10331052  RH  087%=      5-min Rain = 0
KAM1 191056Z 33018KT M03/M05 A3017 RMK A01 T10331052  RH  087%=      5-min Rain = 0
KAM1 191057Z 33018KT M03/M05 A3017 RMK A01 T10341052  RH  087%=      5-min Rain = 0
KAM1 191058Z 32019KT M03/M05 A3017 RMK A01 T10341052  RH  087%=      5-min Rain = 0
KAM1 191059Z 33018KT M03/M05 A3017 RMK A01 T10341052  RH  087%=      5-min Rain = 0
KAM1 191100Z 32017KT M03/M05 A3017 RMK A01 T10341052  RH  087%=      5-min Rain = 0
KAM1 191101Z 33018G23KT M03/M05 A3017 RMK A01 T10341052  RH  087%=      5-min Rain = 0
KAM1 191102Z 33017KT M03/M05 A3017 RMK A01 T10341052  RH  087%=      5-min Rain = 0
KAM1 191103Z 33017KT M03/M05 A3017 RMK A01 T10341052  RH  087%=      5-min Rain = 0
KAM1 191104Z 33016G21KT M03/M05 A3017 RMK A01 T10341052  RH  088%=      5-min Rain = 0
KAM1 191105Z 33016KT M03/M05 A3017 RMK A01 T10341052  RH  087%=      5-min Rain = 0
KAM1 191106Z 33017KT M04/M05 A3017 RMK A01 T10351053  RH  088%=      5-min Rain = 0
KAM1 191107Z 33017KT M03/M05 A3017 RMK A01 T10341052  RH  088%=      5-min Rain = 0
KAM1 191108Z 32017KT M04/M05 A3017 RMK A01 T10351052  RH  088%=      5-min Rain = 0
KAM1 191109Z 33021KT M04/M05 A3017 RMK A01 T10351052  RH  088%=      5-min Rain = 0
KAM1 191110Z 33018KT M03/M05 A3017 RMK A01 T10341052  RH  088%=      5-min Rain = 0
KAM1 191111Z 32016KT M03/M05 A3017 RMK A01 T10341052  RH  088%=      5-min Rain = 0
KAM1 191112Z 33016G24KT M03/M05 A3017 RMK A01 T10341052  RH  088%=      5-min Rain = 0
KAM1 191113Z 33019KT M04/M05 A3017 RMK A01 T10351053  RH  088%=      5-min Rain = 0
KAM1 191114Z 32017KT M04/M05 A3017 RMK A01 T10351052  RH  088%=      5-min Rain = 0
KAM1 191115Z 33018KT M04/M05 A3017 RMK A01 T10351053  RH  088%=      5-min Rain = 0
KAM1 191116Z 32016G22KT M04/M05 A3017 RMK A01 T10351053  RH  088%=      5-min Rain = 0
KAM1 191117Z 32016KT M04/M05 A3017 RMK A01 T10351053  RH  088%=      5-min Rain = 0
KAM1 191118Z 33014KT M04/M05 A3017 RMK A01 T10351053  RH  088%=      5-min Rain = 0
KAM1 191119Z 33016KT M04/M05 A3017 RMK A01 T10361053  RH  088%=      5-min Rain = 0
KAM1 191120Z 32015KT M04/M05 A3017 RMK A01 T10361053  RH  088%=      5-min Rain = 0
KAM1 191121Z 33014KT M04/M05 A3017 RMK A01 T10351053  RH  088%=      5-min Rain = 0
KAM1 191122Z 33016KT M04/M05 A3018 RMK A01 T10361053  RH  088%=      5-min Rain = 0
KAM1 191123Z 33015KT M04/M05 A3018 RMK A01 T10361053  RH  088%=      5-min Rain = 0
KAM1 191124Z 33014KT M04/M05 A3018 RMK A01 T10361054  RH  088%=      5-min Rain = 0
KAM1 191125Z 33013KT M04/M05 A3018 RMK A01 T10371054  RH  088%=      5-min Rain = 0
KAM1 191126Z 33016KT M04/M05 A3017 RMK A01 T10371054  RH  088%=      5-min Rain = 0
KAM1 191127Z 32016KT M04/M05 A3017 RMK A01 T10371054  RH  088%=      5-min Rain = 0
KAM1 191128Z 33014KT M04/M05 A3017 RMK A01 T10371054  RH  088%=      5-min Rain = 0
KAM1 191129Z 33015KT M04/M05 A3017 RMK A01 T10361054  RH  088%=      5-min Rain = 0
KAM1 191130Z 32014KT M04/M05 A3017 RMK A01 T10371054  RH  088%=      5-min Rain = 0
KAM1 191131Z 32011KT M04/M05 A3017 RMK A01 T10371054  RH  088%=      5-min Rain = 0
KAM1 191132Z 33014KT M04/M06 A3017 RMK A01 T10371055  RH  088%=      5-min Rain = 0
KAM1 191133Z 32013KT M04/M06 A3017 RMK A01 T10371055  RH  088%=      5-min Rain = 0
KAM1 191134Z 32015KT M04/M06 A3017 RMK A01 T10381055  RH  088%=      5-min Rain = 0
KAM1 191135Z 32018KT M04/M06 A3017 RMK A01 T10381055  RH  088%=      5-min Rain = 0
KAM1 191136Z 32015KT M04/M05 A3017 RMK A01 T10371054  RH  088%=      5-min Rain = 0
KAM1 191137Z 32014KT M04/M05 A3018 RMK A01 T10371054  RH  088%=      5-min Rain = 0
KAM1 191138Z 33016KT M04/M05 A3017 RMK A01 T10371054  RH  088%=      5-min Rain = 0
KAM1 191139Z 33015KT M04/M05 A3017 RMK A01 T10361054  RH  088%=      5-min Rain = 0
KAM1 191140Z 33013KT M04/M05 A3017 RMK A01 T10361054  RH  087%=      5-min Rain = 0
KAM1 191141Z 33015KT M04/M06 A3017 RMK A01 T10371055  RH  087%=      5-min Rain = 0
KAM1 191142Z 33014KT M04/M05 A3018 RMK A01 T10361054  RH  087%=      5-min Rain = 0
KAM1 191143Z 33013KT M04/M06 A3018 RMK A01 T10371055  RH  087%=      5-min Rain = 0
KAM1 191144Z 33016KT M04/M06 A3018 RMK A01 T10371055  RH  087%=      5-min Rain = 0
KAM1 191145Z 33013G18KT M04/M06 A3018 RMK A01 T10371055  RH  087%=      5-min Rain = 0
KAM1 191146Z 33012KT M04/M06 A3017 RMK A01 T10371055  RH  087%=      5-min Rain = 0
KAM1 191147Z 33013KT M04/M06 A3017 RMK A01 T10371055  RH  087%=      5-min Rain = 0
KAM1 191148Z 33015KT M04/M06 A3018 RMK A01 T10371055  RH  087%=      5-min Rain = 0
KAM1 191149Z 33018KT M04/M06 A3018 RMK A01 T10371055  RH  088%=      5-min Rain = 0
KAM1 191150Z 33015KT M04/M06 A3018 RMK A01 T10371055  RH  087%=      5-min Rain = 0
KAM1 191151Z 33015KT M04/M06 A3018 RMK A01 T10371055  RH  087%=      5-min Rain = 0
KAM1 191152Z 33016KT M04/M06 A3018 RMK A01 T10371055  RH  087%=      5-min Rain = 0
KAM1 191153Z 33014KT M04/M06 A3018 RMK A01 T10361055  RH  087%=      5-min Rain = 0
KAM1 191154Z 33015KT M04/M06 A3018 RMK A01 T10371055  RH  087%=      5-min Rain = 0
KAM1 191155Z 33017KT M04/M06 A3018 RMK A01 T10371055  RH  087%=      5-min Rain = 0
KAM1 191156Z 33017G22KT M04/M06 A3018 RMK A01 T10371055  RH  087%=      5-min Rain = 0
KAM1 191157Z 33018KT M04/M06 A3018 RMK A01 T10371055  RH  087%=      5-min Rain = 0
KAM1 191158Z 34017KT M04/M06 A3018 RMK A01 T10361055  RH  087%=      5-min Rain = 0
KAM1 191159Z 33014KT M04/M06 A3018 RMK A01 T10361055  RH  087%=      5-min Rain = 0
KAM1 191200Z 34015KT M04/M06 A3018 RMK A01 T10361056  RH  086%=      5-min Rain = 0
KAM1 191201Z 34014KT M04/M06 A3018 RMK A01 T10371056  RH  087%=      5-min Rain = 0
KAM1 191202Z 34015KT M04/M06 A3018 RMK A01 T10371056  RH  087%=      5-min Rain = 0
KAM1 191203Z 34016KT M04/M06 A3018 RMK A01 T10371056  RH  087%=      5-min Rain = 0
KAM1 191204Z 34016G21KT M04/M06 A3018 RMK A01 T10361055  RH  087%=      5-min Rain = 0
KAM1 191205Z 34016G22KT M04/M06 A3018 RMK A01 T10361056  RH  086%=      5-min Rain = 0
KAM1 191206Z 34017KT M04/M06 A3018 RMK A01 T10361056  RH  086%=      5-min Rain = 0
KAM1 191207Z 34017KT M04/M06 A3018 RMK A01 T10361056  RH  086%=      5-min Rain = 0
KAM1 191208Z 34016G22KT M04/M06 A3018 RMK A01 T10361056  RH  086%=      5-min Rain = 0
KAM1 191209Z 34017KT M04/M06 A3018 RMK A01 T10361056  RH  086%=      5-min Rain = 0
KAM1 191210Z 34015KT M04/M06 A3018 RMK A01 T10361056  RH  086%=      5-min Rain = 0
KAM1 191211Z 34018KT M04/M06 A3018 RMK A01 T10361056  RH  086%=      5-min Rain = 0
KAM1 191212Z 34015KT M04/M06 A3018 RMK A01 T10351055  RH  086%=      5-min Rain = 0
KAM1 191213Z 34016KT M04/M06 A3018 RMK A01 T10351056  RH  085%=      5-min Rain = 0
KAM1 191214Z 34014KT M04/M06 A3019 RMK A01 T10351056  RH  085%=      5-min Rain = 0
KAM1 191215Z 34017KT M04/M06 A3018 RMK A01 T10351056  RH  085%=      5-min Rain = 0
KAM1 191216Z 34014KT M04/M06 A3018 RMK A01 T10351056  RH  085%=      5-min Rain = 0
KAM1 191217Z 34013KT M04/M06 A3018 RMK A01 T10351056  RH  085%=      5-min Rain = 0
KAM1 191218Z 34016KT M04/M06 A3018 RMK A01 T10361057  RH  085%=      5-min Rain = 0
KAM1 191219Z 34015KT M04/M06 A3018 RMK A01 T10361057  RH  086%=      5-min Rain = 0
KAM1 191220Z 34014KT M04/M06 A3018 RMK A01 T10361056  RH  086%=      5-min Rain = 0
KAM1 191221Z 34015KT M04/M06 A3019 RMK A01 T10351056  RH  086%=      5-min Rain = 0
KAM1 191222Z 34015KT M04/M06 A3019 RMK A01 T10361057  RH  085%=      5-min Rain = 0
KAM1 191223Z 34015KT M04/M06 A3019 RMK A01 T10371057  RH  086%=      5-min Rain = 0
KAM1 191224Z 34013KT M04/M06 A3019 RMK A01 T10371057  RH  086%=      5-min Rain = 0
KAM1 191225Z 34014KT M04/M06 A3018 RMK A01 T10371057  RH  086%=      5-min Rain = 0
KAM1 191226Z 34014KT M04/M06 A3019 RMK A01 T10371057  RH  086%=      5-min Rain = 0
KAM1 191227Z 34013KT M04/M06 A3019 RMK A01 T10371057  RH  086%=      5-min Rain = 0
KAM1 191228Z 34014KT M04/M06 A3019 RMK A01 T10371057  RH  086%=      5-min Rain = 0
KAM1 191229Z 34016KT M04/M06 A3019 RMK A01 T10371057  RH  086%=      5-min Rain = 0
KAM1 191230Z 34015G20KT M04/M06 A3019 RMK A01 T10361056  RH  086%=      5-min Rain = 0
KAM1 191231Z 34015KT M04/M06 A3019 RMK A01 T10361056  RH  085%=      5-min Rain = 0
KAM1 191232Z 34014KT M04/M06 A3019 RMK A01 T10361057  RH  085%=      5-min Rain = 0
KAM1 191233Z 34015KT M04/M06 A3019 RMK A01 T10361057  RH  085%=      5-min Rain = 0
KAM1 191234Z 34014KT M04/M06 A3019 RMK A01 T10361057  RH  085%=      5-min Rain = 0
KAM1 191235Z 34017KT M04/M06 A3019 RMK A01 T10361057  RH  085%=      5-min Rain = 0
KAM1 191236Z 34013KT M04/M06 A3019 RMK A01 T10371057  RH  086%=      5-min Rain = 0
KAM1 191237Z 34013KT M04/M06 A3019 RMK A01 T10371058  RH  085%=      5-min Rain = 0
KAM1 191238Z 34016KT M04/M06 A3019 RMK A01 T10371057  RH  085%=      5-min Rain = 0
KAM1 191239Z 34015KT M04/M06 A3019 RMK A01 T10371057  RH  086%=      5-min Rain = 0
KAM1 191240Z 34013KT M04/M06 A3019 RMK A01 T10371057  RH  086%=      5-min Rain = 0
KAM1 191241Z 34013KT M04/M06 A3019 RMK A01 T10371057  RH  085%=      5-min Rain = 0
KAM1 191242Z 34014KT M04/M06 A3019 RMK A01 T10371058  RH  086%=      5-min Rain = 0
KAM1 191243Z 34016KT M04/M06 A3019 RMK A01 T10371058  RH  086%=      5-min Rain = 0
KAM1 191244Z 34016G21KT M04/M06 A3019 RMK A01 T10371058  RH  086%=      5-min Rain = 0
KAM1 191245Z 35015G20KT M04/M06 A3019 RMK A01 T10371058  RH  086%=      5-min Rain = 0
KAM1 191246Z 34016KT M04/M06 A3019 RMK A01 T10371058  RH  085%=      5-min Rain = 0
KAM1 191247Z 35014KT M04/M06 A3019 RMK A01 T10371058  RH  085%=      5-min Rain = 0
KAM1 191248Z 35015KT M04/M06 A3019 RMK A01 T10371058  RH  085%=      5-min Rain = 0
KAM1 191249Z 34015KT M04/M06 A3019 RMK A01 T10371058  RH  085%=      5-min Rain = 0
KAM1 191250Z 35015G20KT M04/M06 A302 RMK A01 T10371058  RH  086%=      5-min Rain = 0
KAM1 191251Z 35016KT M04/M06 A302 RMK A01 T10371058  RH  086%=      5-min Rain = 0
KAM1 191252Z 34015KT M04/M06 A302 RMK A01 T10381058  RH  086%=      5-min Rain = 0
KAM1 191253Z 35017G22KT M04/M06 A302 RMK A01 T10381058  RH  086%=      5-min Rain = 0
KAM1 191254Z 35016KT M04/M06 A302 RMK A01 T10381058  RH  086%=      5-min Rain = 0
KAM1 191255Z 34016KT M04/M06 A302 RMK A01 T10381058  RH  086%=      5-min Rain = 0
KAM1 191256Z 34018KT M04/M06 A302 RMK A01 T10381058  RH  086%=      5-min Rain = 0
KAM1 191257Z 35018KT M04/M06 A302 RMK A01 T10371058  RH  086%=      5-min Rain = 0
KAM1 191258Z 35017KT M04/M06 A302 RMK A01 T10371058  RH  086%=      5-min Rain = 0
KAM1 191259Z 35017KT M04/M06 A302 RMK A01 T10371058  RH  085%=      5-min Rain = 0
KAM1 191300Z 34016KT M04/M06 A302 RMK A01 T10381059  RH  086%=      5-min Rain = 0
KAM1 191301Z 35016KT M04/M06 A302 RMK A01 T10381058  RH  086%=      5-min Rain = 0
KAM1 191302Z 35016KT M04/M06 A302 RMK A01 T10381059  RH  086%=      5-min Rain = 0
KAM1 191303Z 35015KT M04/M06 A3021 RMK A01 T10381059  RH  086%=      5-min Rain = 0
KAM1 191304Z 35014KT M04/M06 A3021 RMK A01 T10381059  RH  086%=      5-min Rain = 0
KAM1 191305Z 35013KT M04/M06 A3021 RMK A01 T10391059  RH  086%=      5-min Rain = 0
KAM1 191306Z 35016KT M04/M06 A3021 RMK A01 T10391060  RH  086%=      5-min Rain = 0
KAM1 191307Z 36014KT M04/M06 A3021 RMK A01 T10391060  RH  086%=      5-min Rain = 0
KAM1 191308Z 36013KT M04/M06 A3021 RMK A01 T10391059  RH  086%=      5-min Rain = 0
KAM1 191309Z 35013KT M04/M06 A3021 RMK A01 T10391059  RH  086%=      5-min Rain = 0
KAM1 191310Z 35011KT M04/M06 A3021 RMK A01 T10391059  RH  086%=      5-min Rain = 0
KAM1 191311Z 35013KT M04/M06 A3021 RMK A01 T10391060  RH  086%=      5-min Rain = 0
KAM1 191312Z 35012KT M04/M06 A3021 RMK A01 T10401060  RH  086%=      5-min Rain = 0
KAM1 191313Z 35012KT M04/M06 A3021 RMK A01 T10401060  RH  086%=      5-min Rain = 0
KAM1 191314Z 35011KT M04/M06 A3021 RMK A01 T10401060  RH  086%=      5-min Rain = 0
KAM1 191315Z 35011KT M04/M06 A3021 RMK A01 T10411061  RH  086%=      5-min Rain = 0
KAM1 191316Z 35011KT M04/M06 A3021 RMK A01 T10411061  RH  086%=      5-min Rain = 0
KAM1 191317Z 35011KT M04/M06 A3021 RMK A01 T10411061  RH  086%=      5-min Rain = 0
KAM1 191318Z 35011KT M04/M06 A3021 RMK A01 T10421061  RH  086%=      5-min Rain = 0
KAM1 191319Z 35012KT M04/M06 A3021 RMK A01 T10421061  RH  087%=      5-min Rain = 0
KAM1 191320Z 35011KT M04/M06 A3021 RMK A01 T10421061  RH  087%=      5-min Rain = 0
KAM1 191321Z 35012KT M04/M06 A3022 RMK A01 T10421061  RH  087%=      5-min Rain = 0
KAM1 191322Z 35012KT M04/M06 A3022 RMK A01 T10421061  RH  087%=      5-min Rain = 0
KAM1 191323Z 35012KT M04/M06 A3022 RMK A01 T10421060  RH  087%=      5-min Rain = 0
KAM1 191324Z 35011KT M04/M06 A3022 RMK A01 T10411060  RH  087%=      5-min Rain = 0
KAM1 191325Z 35011KT M04/M06 A3022 RMK A01 T10421060  RH  087%=      5-min Rain = 0
KAM1 191326Z 36013KT M04/M06 A3022 RMK A01 T10421061  RH  087%=      5-min Rain = 0
KAM1 191327Z 35010KT M04/M06 A3022 RMK A01 T10421060  RH  087%=      5-min Rain = 0
KAM1 191328Z 36012KT M04/M06 A3022 RMK A01 T10411060  RH  087%=      5-min Rain = 0
KAM1 191329Z 35012KT M04/M06 A3022 RMK A01 T10411060  RH  087%=      5-min Rain = 0
KAM1 191330Z 35011KT M04/M06 A3022 RMK A01 T10411060  RH  087%=      5-min Rain = 0
KAM1 191331Z 35011KT M04/M06 A3022 RMK A01 T10411060  RH  087%=      5-min Rain = 0
KAM1 191332Z 36010KT M04/M06 A3022 RMK A01 T10411060  RH  087%=      5-min Rain = 0
KAM1 191333Z 35010KT M04/M06 A3022 RMK A01 T10411060  RH  087%=      5-min Rain = 0
KAM1 191334Z 35010KT M04/M06 A3022 RMK A01 T10411061  RH  087%=      5-min Rain = 0
KAM1 191335Z 35009KT M04/M06 A3023 RMK A01 T10421061  RH  087%=      5-min Rain = 0
KAM1 191336Z 35009KT M04/M06 A3023 RMK A01 T10421061  RH  087%=      5-min Rain = 0
KAM1 191337Z 35009KT M04/M06 A3023 RMK A01 T10421061  RH  087%=      5-min Rain = 0
KAM1 191338Z 35008KT M04/M06 A3023 RMK A01 T10431062  RH  087%=      5-min Rain = 0
KAM1 191339Z 35009KT M04/M06 A3023 RMK A01 T10431062  RH  087%=      5-min Rain = 0
KAM1 191340Z 35009KT M04/M06 A3023 RMK A01 T10431062  RH  087%=      5-min Rain = 0
KAM1 191341Z 36009KT M04/M06 A3023 RMK A01 T10431061  RH  087%=      5-min Rain = 0
KAM1 191342Z 36009KT M04/M06 A3023 RMK A01 T10431061  RH  087%=      5-min Rain = 0
KAM1 191343Z 35009KT M04/M06 A3023 RMK A01 T10421061  RH  087%=      5-min Rain = 0
KAM1 191344Z 35010KT M04/M06 A3023 RMK A01 T10431061  RH  087%=      5-min Rain = 0
KAM1 191345Z 35009KT M04/M06 A3023 RMK A01 T10431061  RH  087%=      5-min Rain = 0
KAM1 191346Z 36010KT M04/M06 A3023 RMK A01 T10431062  RH  087%=      5-min Rain = 0
KAM1 191347Z 35008KT M04/M06 A3023 RMK A01 T10431062  RH  087%=      5-min Rain = 0
KAM1 191348Z 35008KT M04/M06 A3023 RMK A01 T10441062  RH  087%=      5-min Rain = 0
KAM1 191349Z 35007KT M04/M06 A3023 RMK A01 T10441062  RH  087%=      5-min Rain = 0
KAM1 191350Z 35008KT M04/M06 A3023 RMK A01 T10441062  RH  087%=      5-min Rain = 0
KAM1 191351Z 35007KT M04/M06 A3023 RMK A01 T10431061  RH  087%=      5-min Rain = 0
KAM1 191352Z 35007KT M04/M06 A3023 RMK A01 T10441063  RH  087%=      5-min Rain = 0
KAM1 191353Z 35006KT M04/M06 A3023 RMK A01 T10441063  RH  087%=      5-min Rain = 0
KAM1 191354Z 35007KT M05/M06 A3023 RMK A01 T10451063  RH  087%=      5-min Rain = 0
KAM1 191355Z 35008KT M05/M06 A3023 RMK A01 T10451063  RH  087%=      5-min Rain = 0
KAM1 191356Z 35007KT M05/M06 A3023 RMK A01 T10451063  RH  087%=      5-min Rain = 0
KAM1 191357Z 35008KT M04/M06 A3023 RMK A01 T10441062  RH  087%=      5-min Rain = 0
KAM1 191358Z 35007KT M04/M06 A3023 RMK A01 T10441062  RH  087%=      5-min Rain = 0
KAM1 191359Z 35008KT M04/M06 A3023 RMK A01 T10441062  RH  087%=      5-min Rain = 0
KAM1 191400Z 34009KT M04/M06 A3024 RMK A01 T10431062  RH  087%=      5-min Rain = 0
KAM1 191401Z 34008KT M04/M06 A3024 RMK A01 T10431061  RH  087%=      5-min Rain = 0
KAM1 191402Z 34008KT M04/M06 A3024 RMK A01 T10431061  RH  087%=      5-min Rain = 0
KAM1 191403Z 35009KT M04/M06 A3024 RMK A01 T10421061  RH  087%=      5-min Rain = 0
KAM1 191404Z 34009KT M04/M06 A3024 RMK A01 T10411060  RH  087%=      5-min Rain = 0
KAM1 191405Z 35008KT M04/M06 A3024 RMK A01 T10411060  RH  086%=      5-min Rain = 0
KAM1 191406Z 34008KT M04/M06 A3024 RMK A01 T10411061  RH  086%=      5-min Rain = 0
KAM1 191407Z 35008KT M04/M06 A3024 RMK A01 T10411061  RH  086%=      5-min Rain = 0
KAM1 191408Z 35007KT M04/M06 A3024 RMK A01 T10411061  RH  086%=      5-min Rain = 0
KAM1 191409Z 35007KT M04/M06 A3024 RMK A01 T10401060  RH  086%=      5-min Rain = 0
KAM1 191410Z 35008KT M04/M06 A3024 RMK A01 T10401061  RH  086%=      5-min Rain = 0
KAM1 191411Z 35007KT M04/M06 A3024 RMK A01 T10401060  RH  086%=      5-min Rain = 0
KAM1 191412Z 34007KT M04/M06 A3025 RMK A01 T10391060  RH  085%=      5-min Rain = 0
KAM1 191413Z 34008KT M04/M06 A3025 RMK A01 T10391060  RH  085%=      5-min Rain = 0
KAM1 191414Z 35008KT M04/M06 A3025 RMK A01 T10391060  RH  085%=      5-min Rain = 0
KAM1 191415Z 34008KT M04/M06 A3025 RMK A01 T10381060  RH  085%=      5-min Rain = 0
KAM1 191416Z 35007KT M04/M06 A3025 RMK A01 T10381060  RH  085%=      5-min Rain = 0
KAM1 191417Z 34008KT M04/M06 A3025 RMK A01 T10381060  RH  085%=      5-min Rain = 0
KAM1 191418Z 35008KT M04/M06 A3025 RMK A01 T10371059  RH  085%=      5-min Rain = 0
KAM1 191419Z 35010KT M04/M06 A3025 RMK A01 T10371059  RH  084%=      5-min Rain = 0
KAM1 191420Z 35009KT M04/M06 A3025 RMK A01 T10361059  RH  084%=      5-min Rain = 0
KAM1 191421Z 35009KT M04/M06 A3025 RMK A01 T10361059  RH  084%=      5-min Rain = 0
KAM1 191422Z 34009KT M04/M06 A3025 RMK A01 T10361059  RH  084%=      5-min Rain = 0
KAM1 191423Z 34009KT M04/M06 A3025 RMK A01 T10351059  RH  084%=      5-min Rain = 0
KAM1 191424Z 35008KT M04/M06 A3025 RMK A01 T10351059  RH  084%=      5-min Rain = 0
KAM1 191425Z 35009KT M04/M06 A3025 RMK A01 T10351059  RH  084%=      5-min Rain = 0
KAM1 191426Z 36011KT M03/M06 A3025 RMK A01 T10341059  RH  083%=      5-min Rain = 0
KAM1 191427Z 35011KT M03/M06 A3025 RMK A01 T10341058  RH  083%=      5-min Rain = 0
KAM1 191428Z 36008KT M03/M06 A3025 RMK A01 T10341058  RH  083%=      5-min Rain = 0
KAM1 191429Z 34010KT M03/M06 A3025 RMK A01 T10331058  RH  083%=      5-min Rain = 0
KAM1 191430Z 35010KT M03/M06 A3025 RMK A01 T10331058  RH  083%=      5-min Rain = 0
KAM1 191431Z 35009KT M03/M06 A3025 RMK A01 T10331058  RH  083%=      5-min Rain = 0
KAM1 191432Z 35011KT M03/M06 A3026 RMK A01 T10331058  RH  083%=      5-min Rain = 0
KAM1 191433Z 35011KT M03/M06 A3026 RMK A01 T10321058  RH  082%=      5-min Rain = 0
KAM1 191434Z 35009KT M03/M06 A3026 RMK A01 T10321058  RH  082%=      5-min Rain = 0
KAM1 191435Z 35008KT M03/M06 A3026 RMK A01 T10321058  RH  082%=      5-min Rain = 0
KAM1 191436Z 35008KT M03/M06 A3026 RMK A01 T10321058  RH  082%=      5-min Rain = 0
KAM1 191437Z 35009KT M03/M06 A3026 RMK A01 T10321058  RH  082%=      5-min Rain = 0
KAM1 191438Z 35010KT M03/M06 A3026 RMK A01 T10311058  RH  082%=      5-min Rain = 0
KAM1 191439Z 34008KT M03/M06 A3026 RMK A01 T10311058  RH  082%=      5-min Rain = 0
KAM1 191440Z 34010KT M03/M06 A3026 RMK A01 T10311058  RH  082%=      5-min Rain = 0
KAM1 191441Z 35010KT M03/M06 A3027 RMK A01 T10301058  RH  081%=      5-min Rain = 0
KAM1 191442Z 35011KT M03/M06 A3027 RMK A01 T10301058  RH  081%=      5-min Rain = 0
KAM1 191443Z 34011KT M03/M06 A3027 RMK A01 T10301058  RH  081%=      5-min Rain = 0
KAM1 191444Z 34010KT M03/M06 A3027 RMK A01 T10301058  RH  081%=      5-min Rain = 0
KAM1 191445Z 34011KT M03/M06 A3027 RMK A01 T10301058  RH  081%=      5-min Rain = 0
KAM1 191446Z 35010KT M03/M06 A3027 RMK A01 T10291057  RH  081%=      5-min Rain = 0
KAM1 191447Z 35012KT M03/M06 A3027 RMK A01 T10291057  RH  081%=      5-min Rain = 0
KAM1 191448Z 35010KT M03/M06 A3027 RMK A01 T10291057  RH  081%=      5-min Rain = 0
KAM1 191449Z 35011KT M03/M06 A3027 RMK A01 T10281057  RH  081%=      5-min Rain = 0
KAM1 191450Z 35012KT M03/M06 A3027 RMK A01 T10281057  RH  081%=      5-min Rain = 0
KAM1 191451Z 35012KT M03/M06 A3027 RMK A01 T10271056  RH  080%=      5-min Rain = 0
KAM1 191452Z 35008KT M03/M06 A3027 RMK A01 T10271056  RH  080%=      5-min Rain = 0
KAM1 191453Z 35011KT M03/M06 A3027 RMK A01 T10261055  RH  080%=      5-min Rain = 0
KAM1 191454Z 35012KT M03/M06 A3027 RMK A01 T10261055  RH  080%=      5-min Rain = 0
KAM1 191455Z 35012KT M03/M06 A3027 RMK A01 T10251055  RH  080%=      5-min Rain = 0
KAM1 191456Z 00011KT M03/M06 A3027 RMK A01 T10251055  RH  080%=      5-min Rain = 0
KAM1 191457Z 35012G17KT M03/M06 A3027 RMK A01 T10251055  RH  080%=      5-min Rain = 0
KAM1 191458Z 35011KT M02/M06 A3027 RMK A01 T10241055  RH  079%=      5-min Rain = 0
KAM1 191459Z 35011KT M02/M05 A3027 RMK A01 T10241054  RH  079%=      5-min Rain = 0
KAM1 191500Z 35010KT M02/M05 A3027 RMK A01 T10231054  RH  079%=      5-min Rain = 0
KAM1 191501Z 36011KT M02/M05 A3027 RMK A01 T10231054  RH  079%=      5-min Rain = 0
KAM1 191502Z 36011KT M02/M05 A3027 RMK A01 T10221054  RH  079%=      5-min Rain = 0
KAM1 191503Z 36012KT M02/M05 A3027 RMK A01 T10221054  RH  079%=      5-min Rain = 0
KAM1 191504Z 35012KT M02/M05 A3027 RMK A01 T10221054  RH  079%=      5-min Rain = 0
KAM1 191505Z 35013KT M02/M05 A3028 RMK A01 T10221054  RH  079%=      5-min Rain = 0
KAM1 191506Z 35013KT M02/M05 A3028 RMK A01 T10221054  RH  078%=      5-min Rain = 0
KAM1 191507Z 36011KT M02/M05 A3028 RMK A01 T10221054  RH  079%=      5-min Rain = 0
KAM1 191508Z 35015KT M02/M05 A3028 RMK A01 T10211053  RH  079%=      5-min Rain = 0
KAM1 191509Z 36014KT M02/M05 A3028 RMK A01 T10211054  RH  078%=      5-min Rain = 0
KAM1 191510Z 36015KT M02/M05 A3028 RMK A01 T10211054  RH  078%=      5-min Rain = 0
KAM1 191511Z 35012KT M02/M05 A3028 RMK A01 T10211054  RH  079%=      5-min Rain = 0
KAM1 191512Z 35015KT M02/M05 A3028 RMK A01 T10211053  RH  079%=      5-min Rain = 0
KAM1 191513Z 35014KT M02/M05 A3028 RMK A01 T10211053  RH  078%=      5-min Rain = 0
KAM1 191514Z 35013G19KT M02/M05 A3028 RMK A01 T10211053  RH  078%=      5-min Rain = 0
KAM1 191515Z 35011KT M02/M05 A3028 RMK A01 T10201052  RH  079%=      5-min Rain = 0
KAM1 191516Z 35013KT M02/M05 A3028 RMK A01 T10201052  RH  079%=      5-min Rain = 0
KAM1 191517Z 36014KT M02/M05 A3028 RMK A01 T10191052  RH  078%=      5-min Rain = 0
KAM1 191518Z 35012KT M02/M05 A3028 RMK A01 T10191052  RH  078%=      5-min Rain = 0
KAM1 191519Z 36010KT M02/M05 A3028 RMK A01 T10191052  RH  078%=      5-min Rain = 0
KAM1 191520Z 36011KT M02/M05 A3028 RMK A01 T10181051  RH  078%=      5-min Rain = 0
KAM1 191521Z 35011KT M02/M05 A3028 RMK A01 T10181051  RH  078%=      5-min Rain = 0
KAM1 191522Z 35011KT M02/M05 A3028 RMK A01 T10171051  RH  078%=      5-min Rain = 0
KAM1 191523Z 35011KT M02/M05 A3028 RMK A01 T10161050  RH  078%=      5-min Rain = 0
KAM1 191524Z 35009KT M02/M05 A3028 RMK A01 T10161050  RH  078%=      5-min Rain = 0
KAM1 191525Z 35013KT M02/M05 A3028 RMK A01 T10151050  RH  077%=      5-min Rain = 0
KAM1 191526Z 35012KT M02/M05 A3028 RMK A01 T10151050  RH  077%=      5-min Rain = 0
KAM1 191527Z 35011KT M02/M05 A3028 RMK A01 T10151050  RH  077%=      5-min Rain = 0
KAM1 191528Z 36010G15KT M02/M05 A3028 RMK A01 T10151050  RH  077%=      5-min Rain = 0
KAM1 191529Z 36011KT M02/M05 A3029 RMK A01 T10151050  RH  077%=      5-min Rain = 0
KAM1 191530Z 35014KT M02/M05 A3029 RMK A01 T10151050  RH  077%=      5-min Rain = 0
KAM1 191531Z 35014KT M02/M05 A3029 RMK A01 T10151051  RH  077%=      5-min Rain = 0
KAM1 191532Z 36012KT M02/M05 A3029 RMK A01 T10151050  RH  077%=      5-min Rain = 0
KAM1 191533Z 00010G15KT M02/M05 A3029 RMK A01 T10151049  RH  078%=      5-min Rain = 0
KAM1 191534Z 36013KT M01/M05 A3029 RMK A01 T10141048  RH  078%=      5-min Rain = 0
KAM1 191535Z 00012KT M02/M05 A3029 RMK A01 T10151050  RH  077%=      5-min Rain = 0
KAM1 191536Z 00010KT M02/M05 A3029 RMK A01 T10151049  RH  077%=      5-min Rain = 0
KAM1 191537Z 00013KT M02/M05 A3029 RMK A01 T10151049  RH  078%=      5-min Rain = 0
KAM1 191538Z 00012KT M02/M05 A3029 RMK A01 T10151050  RH  077%=      5-min Rain = 0
KAM1 191539Z 00012KT M02/M05 A3029 RMK A01 T10151050  RH  077%=      5-min Rain = 0
KAM1 191540Z 36010KT M02/M05 A3029 RMK A01 T10151049  RH  078%=      5-min Rain = 0
KAM1 191541Z 35013KT M02/M05 A3029 RMK A01 T10151048  RH  078%=      5-min Rain = 0
KAM1 191542Z 36014KT M01/M05 A3029 RMK A01 T10141049  RH  077%=      5-min Rain = 0
KAM1 191543Z 36013KT M02/M05 A3029 RMK A01 T10151050  RH  077%=      5-min Rain = 0
KAM1 191544Z 36014KT M02/M05 A3029 RMK A01 T10151049  RH  077%=      5-min Rain = 0
KAM1 191545Z 36014KT M02/M05 A3029 RMK A01 T10151049  RH  077%=      5-min Rain = 0
KAM1 191546Z 00015KT M02/M05 A303 RMK A01 T10151049  RH  077%=      5-min Rain = 0
KAM1 191547Z 00012KT M02/M05 A303 RMK A01 T10151050  RH  077%=      5-min Rain = 0
KAM1 191548Z 36010KT M01/M05 A303 RMK A01 T10141048  RH  078%=      5-min Rain = 0
KAM1 191549Z 35013KT M01/M05 A303 RMK A01 T10121046  RH  078%=      5-min Rain = 0
KAM1 191550Z 36013KT M01/M05 A303 RMK A01 T10121048  RH  077%=      5-min Rain = 0
KAM1 191551Z 36013KT M01/M05 A303 RMK A01 T10131048  RH  077%=      5-min Rain = 0
KAM1 191552Z 01009KT M01/M05 A303 RMK A01 T10121048  RH  077%=      5-min Rain = 0
KAM1 191553Z 36011KT M01/M05 A303 RMK A01 T10111047  RH  077%=      5-min Rain = 0
KAM1 191554Z 35012KT M01/M05 A303 RMK A01 T10111047  RH  077%=      5-min Rain = 0
KAM1 191555Z 36011KT M01/M05 A303 RMK A01 T10101046  RH  076%=      5-min Rain = 0
KAM1 191556Z 01012KT M01/M05 A303 RMK A01 T10101047  RH  076%=      5-min Rain = 0
KAM1 191557Z 00012KT M01/M05 A303 RMK A01 T10101048  RH  076%=      5-min Rain = 0
KAM1 191558Z 00012KT M01/M05 A303 RMK A01 T10101048  RH  075%=      5-min Rain = 0
KAM1 191559Z 36011KT M01/M05 A303 RMK A01 T10101048  RH  075%=      5-min Rain = 0
KAM1 191600Z 35015KT M01/M05 A303 RMK A01 T10091047  RH  076%=      5-min Rain = 0
KAM1 191601Z 35010KT M01/M05 A303 RMK A01 T10091048  RH  075%=      5-min Rain = 0
KAM1 191602Z 01012KT M01/M05 A303 RMK A01 T10091047  RH  076%=      5-min Rain = 0
KAM1 191603Z 36010G15KT M01/M05 A303 RMK A01 T10081046  RH  075%=      5-min Rain = 0
KAM1 191604Z 36011KT M01/M05 A303 RMK A01 T10071047  RH  075%=      5-min Rain = 0
KAM1 191605Z 36010KT M01/M05 A3031 RMK A01 T10071046  RH  075%=      5-min Rain = 0
KAM1 191606Z 36010KT M01/M05 A3031 RMK A01 T10071048  RH  074%=      5-min Rain = 0
KAM1 191607Z 36009KT M01/M05 A3031 RMK A01 T10081047  RH  075%=      5-min Rain = 0
KAM1 191608Z 00011KT M01/M05 A3031 RMK A01 T10071045  RH  075%=      5-min Rain = 0
KAM1 191609Z 36009KT M01/M05 A3031 RMK A01 T10061045  RH  075%=      5-min Rain = 0
KAM1 191610Z 36010KT M01/M05 A3031 RMK A01 T10061045  RH  075%=      5-min Rain = 0
KAM1 191611Z 36014KT M01/M05 A3031 RMK A01 T10061047  RH  074%=      5-min Rain = 0
KAM1 191612Z 00011KT M01/M05 A3031 RMK A01 T10081049  RH  074%=      5-min Rain = 0
KAM1 191613Z 00012KT M01/M05 A3031 RMK A01 T10081047  RH  075%=      5-min Rain = 0
KAM1 191614Z 00013KT M01/M05 A3031 RMK A01 T10081047  RH  075%=      5-min Rain = 0
KAM1 191615Z 01013KT M01/M05 A3031 RMK A01 T10081048  RH  074%=      5-min Rain = 0
KAM1 191616Z 01011KT M01/M05 A3031 RMK A01 T10091048  RH  075%=      5-min Rain = 0
KAM1 191617Z 01012KT M01/M05 A3031 RMK A01 T10081047  RH  075%=      5-min Rain = 0
KAM1 191618Z 01012KT M01/M05 A3031 RMK A01 T10081048  RH  075%=      5-min Rain = 0
KAM1 191619Z 01012KT M01/M05 A3032 RMK A01 T10081047  RH  075%=      5-min Rain = 0
KAM1 191620Z 36013KT M01/M05 A3032 RMK A01 T10081048  RH  074%=      5-min Rain = 0
KAM1 191621Z 36012KT M01/M05 A3032 RMK A01 T10081047  RH  075%=      5-min Rain = 0
KAM1 191622Z 36013KT M01/M05 A3032 RMK A01 T10081047  RH  075%=      5-min Rain = 0
KAM1 191623Z 36013KT M01/M05 A3032 RMK A01 T10081047  RH  075%=      5-min Rain = 0
KAM1 191624Z 00012KT M01/M05 A3032 RMK A01 T10081046  RH  075%=      5-min Rain = 0
KAM1 191625Z 01013KT M01/M05 A3032 RMK A01 T10071046  RH  075%=      5-min Rain = 0
KAM1 191626Z 00014KT M01/M05 A3032 RMK A01 T10071046  RH  075%=      5-min Rain = 0
KAM1 191627Z 36015KT M01/M05 A3032 RMK A01 T10071047  RH  074%=      5-min Rain = 0
KAM1 191628Z 35012KT M01/M05 A3032 RMK A01 T10081047  RH  075%=      5-min Rain = 0
KAM1 191629Z 35014KT M01/M05 A3032 RMK A01 T10071045  RH  075%=      5-min Rain = 0
KAM1 191630Z 01012KT M01/M05 A3032 RMK A01 T10071046  RH  075%=      5-min Rain = 0
KAM1 191631Z 00012KT M01/M04 A3032 RMK A01 T10061044  RH  076%=      5-min Rain = 0
KAM1 191632Z 35012KT M00/M04 A3032 RMK A01 T10041042  RH  076%=      5-min Rain = 0
KAM1 191633Z 36012KT M00/M04 A3032 RMK A01 T10041044  RH  074%=      5-min Rain = 0
KAM1 191634Z 36013KT M01/M05 A3032 RMK A01 T10051045  RH  074%=      5-min Rain = 0
KAM1 191635Z 00012KT M01/M05 A3032 RMK A01 T10051045  RH  075%=      5-min Rain = 0
KAM1 191636Z 36013KT M01/M04 A3032 RMK A01 T10051044  RH  075%=      5-min Rain = 0
KAM1 191637Z 35013KT M01/M05 A3032 RMK A01 T10051045  RH  074%=      5-min Rain = 0
KAM1 191638Z 36011KT M01/M05 A3032 RMK A01 T10051045  RH  074%=      5-min Rain = 0
KAM1 191639Z 36012KT M01/M05 A3032 RMK A01 T10051045  RH  074%=      5-min Rain = 0
KAM1 191640Z 36015KT M01/M05 A3032 RMK A01 T10051045  RH  074%=      5-min Rain = 0
KAM1 191641Z 35013KT M01/M05 A3032 RMK A01 T10051046  RH  074%=      5-min Rain = 0
KAM1 191642Z 36011KT M01/M05 A3032 RMK A01 T10061046  RH  074%=      5-min Rain = 0
KAM1 191643Z 35011KT M01/M04 A3032 RMK A01 T10051044  RH  075%=      5-min Rain = 0
KAM1 191644Z 01008KT M00/M04 A3032 RMK A01 T10031041  RH  075%=      5-min Rain = 0
KAM1 191645Z 01010KT 00/04 A3032 RMK A01 T00000-38  RH  075%=      5-min Rain = 0
KAM1 191646Z 01009KT 00/04 A3032 RMK A01 T00000-41  RH  074%=      5-min Rain = 0
KAM1 191647Z 00011KT 00/04 A3032 RMK A01 T00-00-41  RH  074%=      5-min Rain = 0
KAM1 191648Z 01010KT 00/04 A3032 RMK A01 T00-00-42  RH  073%=      5-min Rain = 0
KAM1 191649Z 01010KT M00/M04 A3032 RMK A01 T10011042  RH  074%=      5-min Rain = 0
KAM1 191650Z 01009KT 00/04 A3032 RMK A01 T00000-40  RH  075%=      5-min Rain = 0
KAM1 191651Z 01010KT 00/M04 A3033 RMK A01 T00021039  RH  074%=      5-min Rain = 0
KAM1 191652Z 00011KT 00/M04 A3033 RMK A01 T00011040  RH  074%=      5-min Rain = 0
KAM1 191653Z 35011KT 00/M04 A3032 RMK A01 T00021041  RH  073%=      5-min Rain = 0
KAM1 191654Z 00012KT 00/M04 A3032 RMK A01 T00011041  RH  073%=      5-min Rain = 0
KAM1 191655Z 00011KT 00/M04 A3032 RMK A01 T00011042  RH  073%=      5-min Rain = 0
KAM1 191656Z 36011KT 00/04 A3032 RMK A01 T00000-44  RH  072%=      5-min Rain = 0
KAM1 191657Z 00011KT 00/04 A3032 RMK A01 T00-00-43  RH  073%=      5-min Rain = 0
KAM1 191658Z 00010KT 00/04 A3032 RMK A01 T00000-43  RH  073%=      5-min Rain = 0
KAM1 191659Z 35008KT 00/04 A3032 RMK A01 T00000-41  RH  074%=      5-min Rain = 0
KAM1 191700Z 01012KT 00/M04 A3033 RMK A01 T00031039  RH  074%=      5-min Rain = 0
KAM1 191701Z 36012KT 00/M04 A3033 RMK A01 T00031041  RH  073%=      5-min Rain = 0
KAM1 191702Z 35011KT 00/M04 A3033 RMK A01 T00021042  RH  072%=      5-min Rain = 0
KAM1 191703Z 35009KT 00/M04 A3032 RMK A01 T00011043  RH  072%=      5-min Rain = 0
KAM1 191704Z 36011KT 00/M04 A3032 RMK A01 T00011040  RH  074%=      5-min Rain = 0
KAM1 191705Z 01013KT 00/M04 A3033 RMK A01 T00021040  RH  073%=      5-min Rain = 0
KAM1 191706Z 00011KT 00/M04 A3033 RMK A01 T00021042  RH  072%=      5-min Rain = 0
KAM1 191707Z 36010KT 00/M04 A3033 RMK A01 T00011042  RH  073%=      5-min Rain = 0
KAM1 191708Z 00011KT 00/M04 A3033 RMK A01 T00021040  RH  073%=      5-min Rain = 0
KAM1 191709Z 35011KT 00/M04 A3033 RMK A01 T00031038  RH  074%=      5-min Rain = 0
KAM1 191710Z 35012KT 00/M04 A3033 RMK A01 T00031039  RH  073%=      5-min Rain = 0
KAM1 191711Z 35012KT 00/M04 A3033 RMK A01 T00041040  RH  073%=      5-min Rain = 0
KAM1 191712Z 35013KT 00/M04 A3032 RMK A01 T00041040  RH  073%=      5-min Rain = 0
KAM1 191713Z 34011KT 00/M04 A3032 RMK A01 T00041040  RH  073%=      5-min Rain = 0
KAM1 191714Z 35010KT 00/M04 A3033 RMK A01 T00031041  RH  072%=      5-min Rain = 0
KAM1 191715Z 34011KT 00/M04 A3033 RMK A01 T00041039  RH  073%=      5-min Rain = 0
KAM1 191716Z 33013KT 01/M04 A3032 RMK A01 T00061037  RH  073%=      5-min Rain = 0
KAM1 191717Z 35011KT 01/M04 A3032 RMK A01 T00071036  RH  073%=      5-min Rain = 0
KAM1 191718Z 34012KT 01/M04 A3033 RMK A01 T00081036  RH  073%=      5-min Rain = 0
KAM1 191719Z 35012KT 01/M04 A3033 RMK A01 T00071036  RH  073%=      5-min Rain = 0
KAM1 191720Z 34011KT 01/M04 A3033 RMK A01 T00081036  RH  072%=      5-min Rain = 0
KAM1 191721Z 35013KT 01/M04 A3033 RMK A01 T00071036  RH  073%=      5-min Rain = 0
KAM1 191722Z 35013KT 01/M04 A3033 RMK A01 T00071037  RH  072%=      5-min Rain = 0
KAM1 191723Z 36011KT 01/M04 A3033 RMK A01 T00061039  RH  072%=      5-min Rain = 0
KAM1 191724Z 36012KT 01/M04 A3033 RMK A01 T00061036  RH  073%=      5-min Rain = 0
KAM1 191725Z 35015KT 01/M04 A3033 RMK A01 T00061038  RH  072%=      5-min Rain = 0
KAM1 191726Z 34013KT 01/M04 A3033 RMK A01 T00051040  RH  072%=      5-min Rain = 0
KAM1 191727Z 34011KT 00/M04 A3033 RMK A01 T00041039  RH  073%=      5-min Rain = 0
KAM1 191728Z 35012KT 00/M04 A3033 RMK A01 T00041038  RH  073%=      5-min Rain = 0
KAM1 191729Z 34013KT 01/M04 A3033 RMK A01 T00051036  RH  074%=      5-min Rain = 0
KAM1 191730Z 34013KT 01/M04 A3033 RMK A01 T00061036  RH  073%=      5-min Rain = 0
KAM1 191731Z 35013KT 01/M04 A3033 RMK A01 T00061037  RH  073%=      5-min Rain = 0
KAM1 191732Z 35013KT 01/M04 A3033 RMK A01 T00061035  RH  074%=      5-min Rain = 0
KAM1 191733Z 35014KT 01/M04 A3033 RMK A01 T00071035  RH  074%=      5-min Rain = 0
KAM1 191734Z 35015KT 01/M04 A3033 RMK A01 T00061037  RH  073%=      5-min Rain = 0
KAM1 191735Z 35014KT 01/M04 A3033 RMK A01 T00061036  RH  073%=      5-min Rain = 0
KAM1 191736Z 35014KT 01/M04 A3033 RMK A01 T00061037  RH  073%=      5-min Rain = 0
KAM1 191737Z 34014KT 01/M04 A3033 RMK A01 T00051037  RH  073%=      5-min Rain = 0
KAM1 191738Z 33013KT 01/M04 A3033 RMK A01 T00061036  RH  074%=      5-min Rain = 0
KAM1 191739Z 35010KT 01/M03 A3033 RMK A01 T00081033  RH  074%=      5-min Rain = 0
KAM1 191740Z 34011KT 01/M03 A3033 RMK A01 T00091031  RH  074%=      5-min Rain = 0
KAM1 191741Z 34012KT 01/M03 A3033 RMK A01 T00101031  RH  074%=      5-min Rain = 0
KAM1 191742Z 34013KT 01/M03 A3033 RMK A01 T00101034  RH  072%=      5-min Rain = 0
KAM1 191743Z 33012KT 01/M03 A3033 RMK A01 T00101033  RH  073%=      5-min Rain = 0
KAM1 191744Z 33013KT 01/M03 A3033 RMK A01 T00111031  RH  073%=      5-min Rain = 0
KAM1 191745Z 33013KT 01/M03 A3033 RMK A01 T00111034  RH  072%=      5-min Rain = 0
KAM1 191746Z 34011KT 01/M04 A3033 RMK A01 T00101035  RH  072%=      5-min Rain = 0
KAM1 191747Z 34010KT 01/M03 A3033 RMK A01 T00101032  RH  074%=      5-min Rain = 0
KAM1 191748Z 35010KT 01/M03 A3033 RMK A01 T00131028  RH  074%=      5-min Rain = 0
KAM1 191749Z 35010KT 02/M03 A3033 RMK A01 T00151028  RH  073%=      5-min Rain = 0
KAM1 191750Z 34011KT 02/M03 A3033 RMK A01 T00151029  RH  073%=      5-min Rain = 0
KAM1 191751Z 36011KT 01/M03 A3033 RMK A01 T00141031  RH  072%=      5-min Rain = 0
KAM1 191752Z 35012KT 01/M03 A3033 RMK A01 T00131030  RH  073%=      5-min Rain = 0
KAM1 191753Z 34012KT 01/M03 A3033 RMK A01 T00131032  RH  072%=      5-min Rain = 0
KAM1 191754Z 35011KT 01/M03 A3033 RMK A01 T00121033  RH  072%=      5-min Rain = 0
KAM1 191755Z 34011KT 01/M03 A3033 RMK A01 T00121031  RH  073%=      5-min Rain = 0
KAM1 191756Z 35013KT 01/M03 A3033 RMK A01 T00131028  RH  074%=      5-min Rain = 0
KAM1 191757Z 35012KT 02/M03 A3033 RMK A01 T00151029  RH  073%=      5-min Rain = 0
KAM1 191758Z 35011KT 01/M03 A3033 RMK A01 T00141030  RH  073%=      5-min Rain = 0
KAM1 191759Z 35011KT 01/M03 A3033 RMK A01 T00131032  RH  072%=      5-min Rain = 0
KAM1 191800Z 35013KT 01/M03 A3033 RMK A01 T00131029  RH  073%=      5-min Rain = 0
KAM1 191801Z 35012KT 01/M03 A3033 RMK A01 T00141032  RH  072%=      5-min Rain = 0
KAM1 191802Z 36012KT 01/M03 A3033 RMK A01 T00141028  RH  074%=      5-min Rain = 0
KAM1 191803Z 35012KT 02/M03 A3033 RMK A01 T00161027  RH  073%=      5-min Rain = 0
KAM1 191804Z 35010KT 02/M03 A3033 RMK A01 T00161029  RH  072%=      5-min Rain = 0
KAM1 191805Z 35009KT 02/M03 A3033 RMK A01 T00161029  RH  072%=      5-min Rain = 0
KAM1 191806Z 33012KT 02/M03 A3033 RMK A01 T00171027  RH  073%=      5-min Rain = 0
KAM1 191807Z 34013KT 02/M03 A3033 RMK A01 T00181028  RH  072%=      5-min Rain = 0
KAM1 191808Z 33010KT 02/M03 A3032 RMK A01 T00161032  RH  070%=      5-min Rain = 0
KAM1 191809Z 34011KT 02/M03 A3032 RMK A01 T00161028  RH  072%=      5-min Rain = 0
KAM1 191810Z 33011KT 02/M03 A3032 RMK A01 T00181026  RH  073%=      5-min Rain = 0
KAM1 191811Z 33011KT 02/M03 A3032 RMK A01 T00191027  RH  071%=      5-min Rain = 0
KAM1 191812Z 34011KT 02/M03 A3032 RMK A01 T00191029  RH  071%=      5-min Rain = 0
KAM1 191813Z 34013KT 02/M03 A3032 RMK A01 T00181028  RH  071%=      5-min Rain = 0
KAM1 191814Z 35013KT 02/M03 A3032 RMK A01 T00191027  RH  072%=      5-min Rain = 0
KAM1 191815Z 35012KT 02/M03 A3032 RMK A01 T00191026  RH  072%=      5-min Rain = 0
KAM1 191816Z 34012KT 02/M03 A3032 RMK A01 T00201026  RH  072%=      5-min Rain = 0
KAM1 191817Z 34013KT 02/M03 A3032 RMK A01 T00201028  RH  070%=      5-min Rain = 0
KAM1 191818Z 34011KT 02/M03 A3032 RMK A01 T00201027  RH  071%=      5-min Rain = 0
KAM1 191819Z 35013KT 02/M03 A3032 RMK A01 T00201029  RH  070%=      5-min Rain = 0
KAM1 191820Z 34009KT 02/M03 A3032 RMK A01 T00191028  RH  071%=      5-min Rain = 0
KAM1 191821Z 34012KT 02/M03 A3031 RMK A01 T00211025  RH  072%=      5-min Rain = 0
KAM1 191822Z 34013KT 02/M03 A3031 RMK A01 T00221026  RH  070%=      5-min Rain = 0
KAM1 191823Z 34010G15KT 02/M03 A3031 RMK A01 T00231025  RH  071%=      5-min Rain = 0
KAM1 191824Z 34013KT 02/M03 A3031 RMK A01 T00241025  RH  070%=      5-min Rain = 0
KAM1 191825Z 33014KT 03/M02 A3031 RMK A01 T00261022  RH  071%=      5-min Rain = 0
KAM1 191826Z 33015KT 03/M03 A3031 RMK A01 T00261026  RH  069%=      5-min Rain = 0
KAM1 191827Z 33013KT 02/M03 A3031 RMK A01 T00241029  RH  068%=      5-min Rain = 0
KAM1 191828Z 34011KT 02/M03 A3031 RMK A01 T00231029  RH  068%=      5-min Rain = 0
KAM1 191829Z 33011KT 02/M03 A3031 RMK A01 T00231028  RH  069%=      5-min Rain = 0
KAM1 191830Z 34010KT 02/M02 A3031 RMK A01 T00241024  RH  070%=      5-min Rain = 0
KAM1 191831Z 33009KT 03/M02 A3031 RMK A01 T00261022  RH  070%=      5-min Rain = 0
KAM1 191832Z 33011KT 03/M02 A3031 RMK A01 T00311015  RH  072%=      5-min Rain = 0
KAM1 191833Z 33011G16KT 03/M02 A3031 RMK A01 T00331017  RH  070%=      5-min Rain = 0
KAM1 191834Z 33013KT 03/M02 A3031 RMK A01 T00331020  RH  068%=      5-min Rain = 0
KAM1 191835Z 33012KT 03/M02 A3031 RMK A01 T00311023  RH  068%=      5-min Rain = 0
KAM1 191836Z 35014KT 03/M02 A3031 RMK A01 T00311022  RH  069%=      5-min Rain = 0
KAM1 191837Z 35012KT 03/M02 A303 RMK A01 T00301024  RH  068%=      5-min Rain = 0
KAM1 191838Z 35012KT 03/M02 A303 RMK A01 T00301023  RH  068%=      5-min Rain = 0
KAM1 191839Z 34014KT 03/M02 A303 RMK A01 T00311024  RH  067%=      5-min Rain = 0
KAM1 191840Z 34014KT 03/M02 A303 RMK A01 T00311024  RH  067%=      5-min Rain = 0
KAM1 191841Z 34014KT 03/M03 A303 RMK A01 T00301026  RH  066%=      5-min Rain = 0
KAM1 191842Z 34011KT 03/M03 A303 RMK A01 T00291027  RH  067%=      5-min Rain = 0
KAM1 191843Z 34015KT 03/M02 A303 RMK A01 T00301023  RH  068%=      5-min Rain = 0
KAM1 191844Z 34015KT 03/M02 A303 RMK A01 T00321023  RH  067%=      5-min Rain = 0
KAM1 191845Z 34012KT 03/M03 A303 RMK A01 T00311025  RH  067%=      5-min Rain = 0
KAM1 191846Z 34011KT 03/M02 A303 RMK A01 T00331020  RH  068%=      5-min Rain = 0
KAM1 191847Z 33015KT 04/M02 A303 RMK A01 T00351020  RH  067%=      5-min Rain = 0
KAM1 191848Z 34014KT 04/M02 A303 RMK A01 T00351022  RH  066%=      5-min Rain = 0
KAM1 191849Z 34012KT 03/M03 A303 RMK A01 T00331026  RH  065%=      5-min Rain = 0
KAM1 191850Z 34010KT 03/M03 A303 RMK A01 T00311027  RH  066%=      5-min Rain = 0
KAM1 191851Z 34010KT 03/M03 A303 RMK A01 T00311025  RH  067%=      5-min Rain = 0
KAM1 191852Z 35012KT 04/M02 A303 RMK A01 T00351017  RH  069%=      5-min Rain = 0
KAM1 191853Z 36014KT 04/M02 A303 RMK A01 T00371020  RH  066%=      5-min Rain = 0
KAM1 191854Z 35013KT 04/M02 A303 RMK A01 T00361024  RH  065%=      5-min Rain = 0
KAM1 191855Z 35014KT 04/M02 A303 RMK A01 T00351024  RH  065%=      5-min Rain = 0
KAM1 191856Z 35013KT 04/M02 A303 RMK A01 T00351023  RH  065%=      5-min Rain = 0
KAM1 191857Z 35012KT 04/M02 A303 RMK A01 T00361022  RH  066%=      5-min Rain = 0
KAM1 191858Z 35013KT 04/M02 A303 RMK A01 T00361024  RH  065%=      5-min Rain = 0
KAM1 191859Z 34015KT 04/M02 A303 RMK A01 T00361024  RH  065%=      5-min Rain = 0
KAM1 191900Z 34011KT 04/M02 A303 RMK A01 T00361023  RH  065%=      5-min Rain = 0
KAM1 191901Z 36013KT 04/M02 A303 RMK A01 T00361022  RH  065%=      5-min Rain = 0
KAM1 191902Z 35015KT 04/M02 A303 RMK A01 T00371023  RH  065%=      5-min Rain = 0
KAM1 191903Z 35013KT 04/M03 A303 RMK A01 T00361027  RH  064%=      5-min Rain = 0
KAM1 191904Z 35014KT 04/M02 A303 RMK A01 T00361023  RH  065%=      5-min Rain = 0
KAM1 191905Z 36013KT 04/M02 A303 RMK A01 T00371023  RH  065%=      5-min Rain = 0
KAM1 191906Z 00015KT 04/M02 A303 RMK A01 T00371024  RH  064%=      5-min Rain = 0
KAM1 191907Z 35015KT 04/M03 A303 RMK A01 T00361026  RH  064%=      5-min Rain = 0
KAM1 191908Z 35013KT 04/M03 A303 RMK A01 T00351028  RH  064%=      5-min Rain = 0
KAM1 191909Z 36014KT 03/M03 A303 RMK A01 T00341027  RH  064%=      5-min Rain = 0
KAM1 191910Z 35011KT 04/M03 A303 RMK A01 T00351025  RH  065%=      5-min Rain = 0
KAM1 191911Z 36011KT 04/M02 A303 RMK A01 T00371022  RH  065%=      5-min Rain = 0
KAM1 191912Z 35012KT 04/M02 A303 RMK A01 T00391022  RH  064%=      5-min Rain = 0
KAM1 191913Z 35012KT 04/M02 A303 RMK A01 T00401022  RH  064%=      5-min Rain = 0
KAM1 191914Z 34014KT 04/M03 A303 RMK A01 T00391025  RH  063%=      5-min Rain = 0
KAM1 191915Z 33012KT 04/M03 A303 RMK A01 T00371027  RH  063%=      5-min Rain = 0
KAM1 191916Z 34011KT 04/M03 A3029 RMK A01 T00361027  RH  063%=      5-min Rain = 0
KAM1 191917Z 34013KT 04/M03 A3029 RMK A01 T00371025  RH  064%=      5-min Rain = 0
KAM1 191918Z 35013KT 04/M03 A3029 RMK A01 T00381025  RH  063%=      5-min Rain = 0
KAM1 191919Z 35011KT 04/M03 A3029 RMK A01 T00391026  RH  063%=      5-min Rain = 0
KAM1 191920Z 35011KT 04/M02 A3029 RMK A01 T00401022  RH  064%=      5-min Rain = 0
KAM1 191921Z 36012KT 04/M03 A3029 RMK A01 T00401025  RH  062%=      5-min Rain = 0
KAM1 191922Z 34011KT 04/M03 A3029 RMK A01 T00391025  RH  063%=      5-min Rain = 0
KAM1 191923Z 35009KT 04/M03 A3029 RMK A01 T00391025  RH  063%=      5-min Rain = 0
KAM1 191924Z 34010KT 04/M02 A3029 RMK A01 T00401022  RH  064%=      5-min Rain = 0
KAM1 191925Z 35011KT 04/M02 A3029 RMK A01 T00431020  RH  064%=      5-min Rain = 0
KAM1 191926Z 34010KT 04/M02 A3029 RMK A01 T00441020  RH  063%=      5-min Rain = 0
KAM1 191927Z 35011KT 05/M02 A3029 RMK A01 T00451020  RH  062%=      5-min Rain = 0
KAM1 191928Z 34009KT 05/M02 A3029 RMK A01 T00471018  RH  063%=      5-min Rain = 0
KAM1 191929Z 33010KT 05/M02 A3029 RMK A01 T00491018  RH  062%=      5-min Rain = 0
KAM1 191930Z 33011G17KT 05/M02 A3029 RMK A01 T00491020  RH  061%=      5-min Rain = 0
KAM1 191931Z 34014KT 05/M02 A3029 RMK A01 T00471023  RH  060%=      5-min Rain = 0
KAM1 191932Z 34013KT 05/M02 A3029 RMK A01 T00451024  RH  061%=      5-min Rain = 0
KAM1 191933Z 33012KT 05/M03 A3029 RMK A01 T00451025  RH  060%=      5-min Rain = 0
KAM1 191934Z 35013KT 05/M03 A3029 RMK A01 T00451025  RH  060%=      5-min Rain = 0
KAM1 191935Z 35013KT 05/M02 A3029 RMK A01 T00451024  RH  061%=      5-min Rain = 0
KAM1 191936Z 34011KT 05/M02 A3029 RMK A01 T00461023  RH  061%=      5-min Rain = 0
KAM1 191937Z 35011KT 05/M02 A3029 RMK A01 T00461024  RH  060%=      5-min Rain = 0
KAM1 191938Z 35011KT 05/M02 A3029 RMK A01 T00471024  RH  060%=      5-min Rain = 0
KAM1 191939Z 36012G17KT 05/M02 A3029 RMK A01 T00481020  RH  061%=      5-min Rain = 0
KAM1 191940Z 35015KT 05/M02 A3029 RMK A01 T00501022  RH  060%=      5-min Rain = 0
KAM1 191941Z 35014KT 05/M02 A3028 RMK A01 T00481024  RH  059%=      5-min Rain = 0
KAM1 191942Z 35011KT 05/M03 A3028 RMK A01 T00471025  RH  060%=      5-min Rain = 0
KAM1 191943Z 34011KT 05/M03 A3028 RMK A01 T00461026  RH  059%=      5-min Rain = 0
KAM1 191944Z 34014KT 05/M02 A3028 RMK A01 T00461024  RH  060%=      5-min Rain = 0
KAM1 191945Z 34013KT 05/M03 A3028 RMK A01 T00481025  RH  059%=      5-min Rain = 0
KAM1 191946Z 35013KT 05/M03 A3028 RMK A01 T00481025  RH  059%=      5-min Rain = 0
KAM1 191947Z 34011KT 05/M02 A3028 RMK A01 T00491024  RH  059%=      5-min Rain = 0
KAM1 191948Z 33012KT 05/M03 A3028 RMK A01 T00491025  RH  059%=      5-min Rain = 0
KAM1 191949Z 33012KT 05/M03 A3028 RMK A01 T00481026  RH  059%=      5-min Rain = 0
KAM1 191950Z 33011KT 05/M02 A3028 RMK A01 T00491023  RH  060%=      5-min Rain = 0
KAM1 191951Z 32011KT 05/M02 A3028 RMK A01 T00501023  RH  059%=      5-min Rain = 0
KAM1 191952Z 32012KT 05/M02 A3028 RMK A01 T00511023  RH  059%=      5-min Rain = 0
KAM1 191953Z 32013KT 05/M02 A3028 RMK A01 T00511024  RH  058%=      5-min Rain = 0
KAM1 191954Z 33013KT 05/M03 A3028 RMK A01 T00501027  RH  058%=      5-min Rain = 0
KAM1 191955Z 34011KT 05/M03 A3028 RMK A01 T00491027  RH  058%=      5-min Rain = 0
KAM1 191956Z 33013KT 05/M03 A3027 RMK A01 T00481028  RH  058%=      5-min Rain = 0
KAM1 191957Z 33012KT 05/M03 A3027 RMK A01 T00481028  RH  058%=      5-min Rain = 0
KAM1 191958Z 33010KT 05/M03 A3027 RMK A01 T00491025  RH  059%=      5-min Rain = 0
KAM1 191959Z 33012KT 05/M02 A3027 RMK A01 T00521023  RH  058%=      5-min Rain = 0
KAM1 192000Z 34013KT 05/M03 A3027 RMK A01 T00521025  RH  058%=      5-min Rain = 0
KAM1 192001Z 34012KT 05/M03 A3027 RMK A01 T00521026  RH  057%=      5-min Rain = 0
KAM1 192002Z 34013KT 05/M03 A3027 RMK A01 T00521025  RH  058%=      5-min Rain = 0
KAM1 192003Z 33013KT 05/M02 A3027 RMK A01 T00541022  RH  058%=      5-min Rain = 0
KAM1 192004Z 33014KT 06/M03 A3027 RMK A01 T00551025  RH  056%=      5-min Rain = 0
KAM1 192005Z 34015KT 05/M03 A3027 RMK A01 T00541027  RH  056%=      5-min Rain = 0
KAM1 192006Z 34016KT 05/M03 A3027 RMK A01 T00541027  RH  056%=      5-min Rain = 0
KAM1 192007Z 34015KT 05/M03 A3027 RMK A01 T00541028  RH  056%=      5-min Rain = 0
KAM1 192008Z 34014KT 05/M03 A3027 RMK A01 T00541027  RH  056%=      5-min Rain = 0
KAM1 192009Z 34015KT 05/M03 A3027 RMK A01 T00531029  RH  055%=      5-min Rain = 0
KAM1 192010Z 34014KT 05/M03 A3027 RMK A01 T00511031  RH  055%=      5-min Rain = 0
KAM1 192011Z 34014KT 05/M03 A3027 RMK A01 T00531027  RH  056%=      5-min Rain = 0
KAM1 192012Z 35014KT 06/M03 A3027 RMK A01 T00551029  RH  055%=      5-min Rain = 0
KAM1 192013Z 35013KT 06/M03 A3026 RMK A01 T00551028  RH  055%=      5-min Rain = 0
KAM1 192014Z 35014KT 06/M03 A3026 RMK A01 T00561028  RH  055%=      5-min Rain = 0
KAM1 192015Z 34015KT 06/M03 A3026 RMK A01 T00581026  RH  055%=      5-min Rain = 0
KAM1 192016Z 34015KT 06/M03 A3026 RMK A01 T00581029  RH  054%=      5-min Rain = 0
KAM1 192017Z 33012KT 06/M03 A3026 RMK A01 T00571031  RH  053%=      5-min Rain = 0
KAM1 192018Z 33013KT 06/M03 A3026 RMK A01 T00561030  RH  054%=      5-min Rain = 0
KAM1 192019Z 33013KT 06/M03 A3026 RMK A01 T00571028  RH  054%=      5-min Rain = 0
KAM1 192020Z 32015KT 06/M03 A3026 RMK A01 T00591028  RH  054%=      5-min Rain = 0
KAM1 192021Z 33015KT 06/M03 A3026 RMK A01 T00591029  RH  053%=      5-min Rain = 0
KAM1 192022Z 33010KT 06/M03 A3027 RMK A01 T00571032  RH  053%=      5-min Rain = 0
KAM1 192023Z 32013KT 06/M03 A3027 RMK A01 T00591028  RH  054%=      5-min Rain = 0
KAM1 192024Z 33012KT 06/M03 A3026 RMK A01 T00611026  RH  053%=      5-min Rain = 0
KAM1 192025Z 34014KT 06/M03 A3027 RMK A01 T00631026  RH  053%=      5-min Rain = 0
KAM1 192026Z 33013KT 06/M03 A3026 RMK A01 T00631027  RH  052%=      5-min Rain = 0
KAM1 192027Z 33013KT 06/M03 A3026 RMK A01 T00641028  RH  052%=      5-min Rain = 0
KAM1 192028Z 33012KT 06/M03 A3026 RMK A01 T00621031  RH  051%=      5-min Rain = 0
KAM1 192029Z 31013KT 06/M03 A3026 RMK A01 T00601032  RH  051%=      5-min Rain = 0
KAM1 192030Z 32011KT 06/M03 A3026 RMK A01 T00591034  RH  051%=      5-min Rain = 0
KAM1 192031Z 32012KT 06/M03 A3026 RMK A01 T00601031  RH  052%=      5-min Rain = 0
KAM1 192032Z 32012KT 06/M03 A3026 RMK A01 T00611030  RH  052%=      5-min Rain = 0
KAM1 192033Z 31013KT 06/M03 A3026 RMK A01 T00621031  RH  051%=      5-min Rain = 0
KAM1 192034Z 32009KT 06/M03 A3026 RMK A01 T00621032  RH  051%=      5-min Rain = 0
KAM1 192035Z 34011KT 06/M03 A3026 RMK A01 T00621029  RH  052%=      5-min Rain = 0
KAM1 192036Z 32011KT 07/M03 A3026 RMK A01 T00651026  RH  052%=      5-min Rain = 0
KAM1 192037Z 33012KT 07/M03 A3026 RMK A01 T00671027  RH  051%=      5-min Rain = 0
KAM1 192038Z 34013KT 07/M03 A3026 RMK A01 T00681027  RH  051%=      5-min Rain = 0
KAM1 192039Z 34012KT 07/M03 A3026 RMK A01 T00691028  RH  050%=      5-min Rain = 0
KAM1 192040Z 33014KT 07/M03 A3026 RMK A01 T00691031  RH  049%=      5-min Rain = 0
KAM1 192041Z 34015KT 07/M03 A3026 RMK A01 T00671034  RH  049%=      5-min Rain = 0
KAM1 192042Z 35014KT 07/M04 A3026 RMK A01 T00651035  RH  049%=      5-min Rain = 0
KAM1 192043Z 34012KT 07/M03 A3026 RMK A01 T00651033  RH  049%=      5-min Rain = 0
KAM1 192044Z 34011KT 07/M03 A3026 RMK A01 T00661032  RH  050%=      5-min Rain = 0
KAM1 192045Z 32010KT 07/M03 A3026 RMK A01 T00681030  RH  050%=      5-min Rain = 0
KAM1 192046Z 34011KT 07/M03 A3026 RMK A01 T00671029  RH  050%=      5-min Rain = 0
KAM1 192047Z 33010KT 07/M03 A3026 RMK A01 T00681030  RH  050%=      5-min Rain = 0
KAM1 192048Z 31011KT 07/M03 A3026 RMK A01 T00691030  RH  049%=      5-min Rain = 0
KAM1 192049Z 34011G16KT 07/M03 A3026 RMK A01 T00691030  RH  049%=      5-min Rain = 0
KAM1 192050Z 35014KT 07/M03 A3026 RMK A01 T00701031  RH  049%=      5-min Rain = 0
KAM1 192051Z 35011KT 07/M03 A3026 RMK A01 T00691033  RH  048%=      5-min Rain = 0
KAM1 192052Z 34010KT 07/M03 A3026 RMK A01 T00681034  RH  048%=      5-min Rain = 0
KAM1 192053Z 34008KT 07/M03 A3026 RMK A01 T00681033  RH  049%=      5-min Rain = 0
KAM1 192054Z 31013KT 07/M03 A3026 RMK A01 T00701031  RH  049%=      5-min Rain = 0
KAM1 192055Z 31012KT 07/M03 A3026 RMK A01 T00701032  RH  048%=      5-min Rain = 0
KAM1 192056Z 32010KT 07/M03 A3026 RMK A01 T00701031  RH  048%=      5-min Rain = 0
KAM1 192057Z 33009KT 07/M03 A3026 RMK A01 T00701032  RH  048%=      5-min Rain = 0
KAM1 192058Z 35011G16KT 07/M03 A3026 RMK A01 T00701033  RH  048%=      5-min Rain = 0
KAM1 192059Z 35013KT 07/M04 A3026 RMK A01 T00711036  RH  047%=      5-min Rain = 0
KAM1 192100Z 34012KT 07/M04 A3026 RMK A01 T00701035  RH  047%=      5-min Rain = 0
KAM1 192101Z 34010KT 07/M04 A3026 RMK A01 T00701036  RH  047%=      5-min Rain = 0
KAM1 192102Z 34011KT 07/M03 A3026 RMK A01 T00691034  RH  048%=      5-min Rain = 0
KAM1 192103Z 34013KT 07/M03 A3026 RMK A01 T00691034  RH  048%=      5-min Rain = 0
KAM1 192104Z 34011KT 07/M04 A3025 RMK A01 T00691036  RH  047%=      5-min Rain = 0
KAM1 192105Z 34011KT 07/M04 A3025 RMK A01 T00671036  RH  047%=      5-min Rain = 0
KAM1 192106Z 35011KT 07/M04 A3026 RMK A01 T00661036  RH  048%=      5-min Rain = 0
KAM1 192107Z 34009KT 07/M04 A3025 RMK A01 T00671035  RH  048%=      5-min Rain = 0
KAM1 192108Z 33012KT 07/M03 A3025 RMK A01 T00691030  RH  049%=      5-min Rain = 0
KAM1 192109Z 32014KT 07/M03 A3025 RMK A01 T00721033  RH  047%=      5-min Rain = 0
KAM1 192110Z 33014KT 07/M04 A3026 RMK A01 T00711036  RH  046%=      5-min Rain = 0
KAM1 192111Z 33012KT 07/M03 A3026 RMK A01 T00721033  RH  047%=      5-min Rain = 0
KAM1 192112Z 33012KT 07/M03 A3025 RMK A01 T00721033  RH  047%=      5-min Rain = 0
KAM1 192113Z 33011KT 07/M04 A3025 RMK A01 T00711035  RH  047%=      5-min Rain = 0
KAM1 192114Z 34012KT 07/M04 A3025 RMK A01 T00691035  RH  048%=      5-min Rain = 0
KAM1 192115Z 34013KT 07/M04 A3025 RMK A01 T00681035  RH  048%=      5-min Rain = 0
KAM1 192116Z 33013KT 07/M03 A3025 RMK A01 T00681034  RH  048%=      5-min Rain = 0
KAM1 192117Z 34014KT 07/M04 A3026 RMK A01 T00701036  RH  047%=      5-min Rain = 0
KAM1 192118Z 34012KT 07/M04 A3026 RMK A01 T00701037  RH  047%=      5-min Rain = 0
KAM1 192119Z 34010KT 07/M04 A3026 RMK A01 T00701037  RH  046%=      5-min Rain = 0
KAM1 192120Z 33010KT 07/M04 A3026 RMK A01 T00701038  RH  046%=      5-min Rain = 0
KAM1 192121Z 33011KT 07/M04 A3026 RMK A01 T00711037  RH  046%=      5-min Rain = 0
KAM1 192122Z 34011KT 07/M04 A3026 RMK A01 T00741037  RH  045%=      5-min Rain = 0
KAM1 192123Z 34013KT 08/M04 A3026 RMK A01 T00751035  RH  046%=      5-min Rain = 0
KAM1 192124Z 32014KT 07/M04 A3026 RMK A01 T00741038  RH  045%=      5-min Rain = 0
KAM1 192125Z 32012KT 07/M04 A3026 RMK A01 T00731038  RH  045%=      5-min Rain = 0
KAM1 192126Z 32012G18KT 07/M04 A3026 RMK A01 T00731037  RH  046%=      5-min Rain = 0
KAM1 192127Z 33012KT 07/M04 A3026 RMK A01 T00731036  RH  046%=      5-min Rain = 0
KAM1 192128Z 33010KT 07/M04 A3026 RMK A01 T00731037  RH  045%=      5-min Rain = 0
KAM1 192129Z 34010KT 07/M04 A3026 RMK A01 T00731037  RH  046%=      5-min Rain = 0
KAM1 192130Z 33012KT 07/M04 A3026 RMK A01 T00731038  RH  045%=      5-min Rain = 0
KAM1 192131Z 34012KT 07/M04 A3026 RMK A01 T00721039  RH  045%=      5-min Rain = 0
KAM1 192132Z 34011KT 07/M04 A3026 RMK A01 T00721038  RH  045%=      5-min Rain = 0
KAM1 192133Z 34010KT 07/M04 A3026 RMK A01 T00721039  RH  045%=      5-min Rain = 0
KAM1 192134Z 34011KT 07/M04 A3026 RMK A01 T00711040  RH  045%=      5-min Rain = 0
KAM1 192135Z 33011KT 07/M04 A3026 RMK A01 T00701041  RH  045%=      5-min Rain = 0
KAM1 192136Z 32013KT 07/M04 A3026 RMK A01 T00701041  RH  045%=      5-min Rain = 0
KAM1 192137Z 33012KT 07/M04 A3026 RMK A01 T00721040  RH  045%=      5-min Rain = 0
KAM1 192138Z 33009KT 07/M04 A3026 RMK A01 T00731040  RH  045%=      5-min Rain = 0
KAM1 192139Z 32008KT 07/M04 A3026 RMK A01 T00721040  RH  045%=      5-min Rain = 0
KAM1 192140Z 33007KT 07/M04 A3026 RMK A01 T00721037  RH  046%=      5-min Rain = 0
KAM1 192141Z 34008KT 07/M04 A3026 RMK A01 T00741036  RH  046%=      5-min Rain = 0
KAM1 192142Z 33007KT 07/M04 A3026 RMK A01 T00741038  RH  045%=      5-min Rain = 0
KAM1 192143Z 33008KT 07/M04 A3026 RMK A01 T00731039  RH  045%=      5-min Rain = 0
KAM1 192144Z 33010KT 07/M04 A3026 RMK A01 T00721037  RH  046%=      5-min Rain = 0
KAM1 192145Z 33011KT 07/M04 A3026 RMK A01 T00741036  RH  045%=      5-min Rain = 0
KAM1 192146Z 32013KT 08/M04 A3026 RMK A01 T00751037  RH  045%=      5-min Rain = 0
KAM1 192147Z 33012KT 07/M04 A3026 RMK A01 T00741037  RH  045%=      5-min Rain = 0
KAM1 192148Z 33008KT 07/M04 A3026 RMK A01 T00741039  RH  044%=      5-min Rain = 0
KAM1 192149Z 34007KT 07/M04 A3026 RMK A01 T00731037  RH  045%=      5-min Rain = 0
KAM1 192150Z 34008KT 08/M04 A3026 RMK A01 T00761035  RH  045%=      5-min Rain = 0
KAM1 192151Z 34009KT 08/M04 A3026 RMK A01 T00751039  RH  044%=      5-min Rain = 0
KAM1 192152Z 33011KT 08/M04 A3026 RMK A01 T00761038  RH  044%=      5-min Rain = 0
KAM1 192153Z 34012KT 08/M04 A3026 RMK A01 T00771040  RH  043%=      5-min Rain = 0
KAM1 192154Z 35013KT 08/M04 A3026 RMK A01 T00771040  RH  043%=      5-min Rain = 0
KAM1 192155Z 34013KT 08/M04 A3026 RMK A01 T00761042  RH  043%=      5-min Rain = 0
KAM1 192156Z 33012KT 07/M04 A3026 RMK A01 T00741044  RH  043%=      5-min Rain = 0
KAM1 192157Z 34010KT 07/M05 A3026 RMK A01 T00731045  RH  043%=      5-min Rain = 0
KAM1 192158Z 35011KT 07/M04 A3026 RMK A01 T00731042  RH  044%=      5-min Rain = 0
KAM1 192159Z 35009KT 07/M04 A3026 RMK A01 T00731041  RH  044%=      5-min Rain = 0
KAM1 192200Z 35009KT 07/M04 A3026 RMK A01 T00741040  RH  044%=      5-min Rain = 0
KAM1 192201Z 35009KT 07/M04 A3026 RMK A01 T00741041  RH  044%=      5-min Rain = 0
KAM1 192202Z 34010KT 07/M04 A3026 RMK A01 T00731042  RH  044%=      5-min Rain = 0
KAM1 192203Z 35011KT 07/M04 A3026 RMK A01 T00731041  RH  044%=      5-min Rain = 0
KAM1 192204Z 34008KT 07/M04 A3026 RMK A01 T00741041  RH  044%=      5-min Rain = 0
KAM1 192205Z 34008KT 07/M04 A3026 RMK A01 T00741041  RH  044%=      5-min Rain = 0
KAM1 192206Z 36008KT 07/M04 A3026 RMK A01 T00741041  RH  044%=      5-min Rain = 0
KAM1 192207Z 00007KT 07/M04 A3026 RMK A01 T00741041  RH  044%=      5-min Rain = 0
KAM1 192208Z 33009KT 07/M04 A3026 RMK A01 T00731041  RH  044%=      5-min Rain = 0
KAM1 192209Z 34009KT 07/M04 A3026 RMK A01 T00741042  RH  044%=      5-min Rain = 0
KAM1 192210Z 35008KT 07/M04 A3026 RMK A01 T00741044  RH  043%=      5-min Rain = 0
KAM1 192211Z 34007KT 07/M04 A3026 RMK A01 T00741042  RH  044%=      5-min Rain = 0
KAM1 192212Z 35009KT 07/M04 A3026 RMK A01 T00741041  RH  044%=      5-min Rain = 0
KAM1 192213Z 34007KT 08/M04 A3026 RMK A01 T00751040  RH  044%=      5-min Rain = 0
KAM1 192214Z 34007KT 08/M04 A3026 RMK A01 T00751040  RH  044%=      5-min Rain = 0
KAM1 192215Z 00008KT 08/M04 A3026 RMK A01 T00751040  RH  044%=      5-min Rain = 0
KAM1 192216Z 35011KT 08/M04 A3026 RMK A01 T00761040  RH  043%=      5-min Rain = 0
KAM1 192217Z 36008KT 08/M04 A3026 RMK A01 T00751043  RH  043%=      5-min Rain = 0
KAM1 192218Z 36007KT 07/M05 A3026 RMK A01 T00731045  RH  043%=      5-min Rain = 0
KAM1 192219Z 01007KT 07/M04 A3026 RMK A01 T00731043  RH  043%=      5-min Rain = 0
KAM1 192220Z 02006KT 07/M04 A3026 RMK A01 T00731042  RH  044%=      5-min Rain = 0
KAM1 192221Z 00010KT 07/M04 A3026 RMK A01 T00741041  RH  044%=      5-min Rain = 0
KAM1 192222Z 36010KT 08/M04 A3026 RMK A01 T00751042  RH  043%=      5-min Rain = 0
KAM1 192223Z 35008KT 08/M04 A3026 RMK A01 T00751043  RH  043%=      5-min Rain = 0
KAM1 192224Z 34007KT 07/M04 A3026 RMK A01 T00741043  RH  043%=      5-min Rain = 0
KAM1 192225Z 35008KT 07/M05 A3026 RMK A01 T00731045  RH  043%=      5-min Rain = 0
KAM1 192226Z 01006KT 07/M04 A3026 RMK A01 T00731042  RH  044%=      5-min Rain = 0
KAM1 192227Z 01006KT 07/M04 A3026 RMK A01 T00741041  RH  044%=      5-min Rain = 0
KAM1 192228Z 02004KT 07/M04 A3026 RMK A01 T00741044  RH  043%=      5-min Rain = 0
KAM1 192229Z 02003KT 07/M05 A3026 RMK A01 T00721045  RH  043%=      5-min Rain = 0
KAM1 192230Z 01007KT 07/M05 A3026 RMK A01 T00721046  RH  043%=      5-min Rain = 0
KAM1 192231Z 01007KT 07/M05 A3026 RMK A01 T00711047  RH  043%=      5-min Rain = 0
KAM1 192232Z 36008KT 07/M05 A3026 RMK A01 T00711046  RH  043%=      5-min Rain = 0
KAM1 192233Z 35009KT 07/M05 A3026 RMK A01 T00721045  RH  043%=      5-min Rain = 0
KAM1 192234Z 34007KT 07/M05 A3026 RMK A01 T00721045  RH  043%=      5-min Rain = 0
KAM1 192235Z 35006KT 07/M05 A3026 RMK A01 T00721045  RH  043%=      5-min Rain = 0
KAM1 192236Z 01007KT 07/M05 A3026 RMK A01 T00721046  RH  043%=      5-min Rain = 0
KAM1 192237Z 00009KT 07/M05 A3026 RMK A01 T00721045  RH  043%=      5-min Rain = 0
KAM1 192238Z 01008KT 07/M05 A3026 RMK A01 T00721045  RH  043%=      5-min Rain = 0
KAM1 192239Z 00009KT 07/M05 A3026 RMK A01 T00721046  RH  043%=      5-min Rain = 0
KAM1 192240Z 36009KT 07/M05 A3026 RMK A01 T00721045  RH  043%=      5-min Rain = 0
KAM1 192241Z 01008KT 07/M04 A3026 RMK A01 T00721044  RH  043%=      5-min Rain = 0
KAM1 192242Z 02008KT 07/M05 A3026 RMK A01 T00721045  RH  043%=      5-min Rain = 0
KAM1 192243Z 01008KT 07/M05 A3026 RMK A01 T00721045  RH  043%=      5-min Rain = 0
KAM1 192244Z 01007KT 07/M05 A3026 RMK A01 T00721045  RH  043%=      5-min Rain = 0
KAM1 192245Z 36005KT 07/M05 A3026 RMK A01 T00711046  RH  043%=      5-min Rain = 0
KAM1 192246Z 36004KT 07/M04 A3026 RMK A01 T00711044  RH  044%=      5-min Rain = 0
KAM1 192247Z 01005KT 07/M04 A3026 RMK A01 T00731043  RH  043%=      5-min Rain = 0
KAM1 192248Z 02007KT 07/M04 A3026 RMK A01 T00731043  RH  043%=      5-min Rain = 0
KAM1 192249Z 01005KT 07/M05 A3026 RMK A01 T00731045  RH  043%=      5-min Rain = 0
KAM1 192250Z 02005KT 07/M05 A3026 RMK A01 T00721045  RH  043%=      5-min Rain = 0
KAM1 192251Z 02007KT 07/M05 A3026 RMK A01 T00721045  RH  043%=      5-min Rain = 0
KAM1 192252Z 01005KT 07/M05 A3027 RMK A01 T00711046  RH  043%=      5-min Rain = 0
KAM1 192253Z 00005KT 07/M05 A3026 RMK A01 T00701046  RH  043%=      5-min Rain = 0
KAM1 192254Z 01005KT 07/M05 A3026 RMK A01 T00701047  RH  043%=      5-min Rain = 0
KAM1 192255Z 03006KT 07/M05 A3026 RMK A01 T00701047  RH  043%=      5-min Rain = 0
KAM1 192256Z 02006KT 07/M05 A3026 RMK A01 T00711046  RH  043%=      5-min Rain = 0
KAM1 192257Z 02005KT 07/M05 A3026 RMK A01 T00711045  RH  043%=      5-min Rain = 0
KAM1 192258Z 02006KT 07/M05 A3026 RMK A01 T00721045  RH  043%=      5-min Rain = 0
KAM1 192259Z 00008KT 07/M05 A3026 RMK A01 T00721046  RH  043%=      5-min Rain = 0
KAM1 192300Z 36006KT 07/M05 A3026 RMK A01 T00721047  RH  043%=      5-min Rain = 0
KAM1 192301Z 36007KT 07/M05 A3026 RMK A01 T00711048  RH  043%=      5-min Rain = 0
KAM1 192302Z 36006KT 07/M05 A3026 RMK A01 T00701047  RH  043%=      5-min Rain = 0
KAM1 192303Z 01006KT 07/M05 A3026 RMK A01 T00701046  RH  044%=      5-min Rain = 0
KAM1 192304Z 01006KT 07/M05 A3027 RMK A01 T00701045  RH  044%=      5-min Rain = 0
KAM1 192305Z 02005KT 07/M05 A3027 RMK A01 T00701047  RH  043%=      5-min Rain = 0
KAM1 192306Z 02006KT 07/M05 A3027 RMK A01 T00691047  RH  043%=      5-min Rain = 0
KAM1 192307Z 02005KT 07/M05 A3027 RMK A01 T00691047  RH  043%=      5-min Rain = 0
KAM1 192308Z 02004KT 07/M05 A3027 RMK A01 T00691047  RH  043%=      5-min Rain = 0
KAM1 192309Z 01006KT 07/M05 A3027 RMK A01 T00691046  RH  044%=      5-min Rain = 0
KAM1 192310Z 01005KT 07/M05 A3027 RMK A01 T00691047  RH  043%=      5-min Rain = 0
KAM1 192311Z 01005KT 07/M05 A3027 RMK A01 T00691047  RH  043%=      5-min Rain = 0
KAM1 192312Z 02006KT 07/M05 A3027 RMK A01 T00691047  RH  043%=      5-min Rain = 0
KAM1 192313Z 01007KT 07/M05 A3027 RMK A01 T00691047  RH  043%=      5-min Rain = 0
KAM1 192314Z 01007KT 07/M05 A3027 RMK A01 T00681048  RH  043%=      5-min Rain = 0
KAM1 192315Z 02005KT 07/M05 A3027 RMK A01 T00671048  RH  044%=      5-min Rain = 0
KAM1 192316Z 02007KT 07/M05 A3027 RMK A01 T00671047  RH  044%=      5-min Rain = 0
KAM1 192317Z 03007KT 07/M05 A3027 RMK A01 T00661048  RH  044%=      5-min Rain = 0
KAM1 192318Z 02008KT 07/M05 A3027 RMK A01 T00661048  RH  044%=      5-min Rain = 0
KAM1 192319Z 01006KT 07/M05 A3027 RMK A01 T00661049  RH  044%=      5-min Rain = 0
KAM1 192320Z 01005KT 07/M05 A3027 RMK A01 T00661049  RH  044%=      5-min Rain = 0
KAM1 192321Z 01004KT 07/M05 A3027 RMK A01 T00661048  RH  044%=      5-min Rain = 0
KAM1 192322Z 01005KT 07/M05 A3027 RMK A01 T00661047  RH  044%=      5-min Rain = 0
KAM1 192323Z 00006KT 07/M05 A3027 RMK A01 T00661048  RH  044%=      5-min Rain = 0
KAM1 192324Z 01005KT 07/M05 A3027 RMK A01 T00651049  RH  044%=      5-min Rain = 0
KAM1 192325Z 01005KT 07/M05 A3027 RMK A01 T00651049  RH  044%=      5-min Rain = 0
KAM1 192326Z 01005KT 07/M05 A3027 RMK A01 T00651049  RH  044%=      5-min Rain = 0
KAM1 192327Z 01005KT 07/M05 A3027 RMK A01 T00651050  RH  044%=      5-min Rain = 0
KAM1 192328Z 02005KT 06/M05 A3027 RMK A01 T00641050  RH  044%=      5-min Rain = 0
KAM1 192329Z 03004KT 06/M05 A3027 RMK A01 T00641049  RH  044%=      5-min Rain = 0
KAM1 192330Z 03004KT 06/M05 A3027 RMK A01 T00631049  RH  044%=      5-min Rain = 0
KAM1 192331Z 03004KT 06/M05 A3027 RMK A01 T00631049  RH  045%=      5-min Rain = 0
KAM1 192332Z 03004KT 06/M05 A3027 RMK A01 T00631049  RH  045%=      5-min Rain = 0
KAM1 192333Z 04003KT 06/M05 A3027 RMK A01 T00631049  RH  045%=      5-min Rain = 0
KAM1 192334Z 04004KT 06/M05 A3027 RMK A01 T00621048  RH  045%=      5-min Rain = 0
KAM1 192335Z 04004KT 06/M05 A3027 RMK A01 T00621047  RH  046%=      5-min Rain = 0
KAM1 192336Z 04003KT 06/M05 A3027 RMK A01 T00611047  RH  046%=      5-min Rain = 0
KAM1 192337Z 04003KT 06/M05 A3027 RMK A01 T00611047  RH  046%=      5-min Rain = 0
KAM1 192338Z 04003KT 06/M05 A3027 RMK A01 T00601046  RH  046%=      5-min Rain = 0
KAM1 192339Z 04003KT 06/M05 A3027 RMK A01 T00601045  RH  047%=      5-min Rain = 0
KAM1 192340Z 04003KT 06/M05 A3027 RMK A01 T00591045  RH  047%=      5-min Rain = 0
KAM1 192341Z 04004KT 06/M05 A3027 RMK A01 T00591046  RH  047%=      5-min Rain = 0
KAM1 192342Z 04004KT 06/M05 A3027 RMK A01 T00581046  RH  047%=      5-min Rain = 0
KAM1 192343Z 03004KT 06/M05 A3027 RMK A01 T00561047  RH  047%=      5-min Rain = 0
KAM1 192344Z 03005KT 06/M05 A3027 RMK A01 T00551047  RH  048%=      5-min Rain = 0
KAM1 192345Z 03005KT 05/M05 A3027 RMK A01 T00541048  RH  048%=      5-min Rain = 0
KAM1 192346Z 03005KT 05/M05 A3027 RMK A01 T00521049  RH  048%=      5-min Rain = 0
KAM1 192347Z 03005KT 05/M05 A3027 RMK A01 T00501049  RH  049%=      5-min Rain = 0
KAM1 192348Z 03005KT 05/M05 A3027 RMK A01 T00481050  RH  049%=      5-min Rain = 0
KAM1 192349Z 03005KT 05/M05 A3027 RMK A01 T00471050  RH  049%=      5-min Rain = 0
KAM1 192350Z 03005KT 05/M05 A3027 RMK A01 T00451050  RH  050%=      5-min Rain = 0
KAM1 192351Z 03004KT 04/M05 A3027 RMK A01 T00441050  RH  050%=      5-min Rain = 0
KAM1 192352Z 04004KT 04/M05 A3027 RMK A01 T00441050  RH  051%=      5-min Rain = 0
KAM1 192353Z 04004KT 04/M05 A3027 RMK A01 T00431048  RH  051%=      5-min Rain = 0
KAM1 192354Z 04004KT 04/M05 A3027 RMK A01 T00421049  RH  051%=      5-min Rain = 0
KAM1 192355Z 04004KT 04/M05 A3027 RMK A01 T00421048  RH  052%=      5-min Rain = 0
KAM1 192356Z 04004KT 04/M05 A3027 RMK A01 T00411047  RH  052%=      5-min Rain = 0
KAM1 192357Z 04004KT 04/M05 A3027 RMK A01 T00411047  RH  053%=      5-min Rain = 0
KAM1 192358Z 05004KT 04/M05 A3027 RMK A01 T00401048  RH  053%=      5-min Rain = 0
KAM1 192359Z 05004KT 04/M05 A3027 RMK A01 T00391048  RH  053%=      5-min Rain = 0
KAM1 200000Z 05004KT 04/M05 A3027 RMK A01 T00391047  RH  054%=      5-min Rain = 0
KAM1 200001Z 05004KT 04/M05 A3027 RMK A01 T00381045  RH  054%=      5-min Rain = 0
KAM1 200002Z 05004KT 04/M04 A3028 RMK A01 T00371044  RH  055%=      5-min Rain = 0
KAM1 200003Z 05004KT 04/M04 A3028 RMK A01 T00371043  RH  056%=      5-min Rain = 0
KAM1 200004Z 05004KT 04/M04 A3028 RMK A01 T00381043  RH  055%=      5-min Rain = 0
KAM1 200005Z 05004KT 04/M04 A3028 RMK A01 T00401043  RH  055%=      5-min Rain = 0
KAM1 200006Z 06004KT 04/M04 A3027 RMK A01 T00411043  RH  054%=      5-min Rain = 0
KAM1 200007Z 06004KT 04/M04 A3027 RMK A01 T00411042  RH  055%=      5-min Rain = 0
KAM1 200008Z 06004KT 04/M04 A3027 RMK A01 T00391043  RH  055%=      5-min Rain = 0
KAM1 200009Z 06005KT 04/M04 A3027 RMK A01 T00381043  RH  055%=      5-min Rain = 0
KAM1 200010Z 06005KT 04/M04 A3027 RMK A01 T00361044  RH  056%=      5-min Rain = 0
KAM1 200011Z 06005KT 04/M05 A3027 RMK A01 T00351046  RH  056%=      5-min Rain = 0
KAM1 200012Z 06005KT 03/M05 A3027 RMK A01 T00331047  RH  056%=      5-min Rain = 0
KAM1 200013Z 06005KT 03/M05 A3027 RMK A01 T00301048  RH  056%=      5-min Rain = 0
KAM1 200014Z 05005KT 03/M05 A3027 RMK A01 T00271049  RH  057%=      5-min Rain = 0
KAM1 200015Z 05005KT 03/M05 A3027 RMK A01 T00251050  RH  058%=      5-min Rain = 0
KAM1 200016Z 05005KT 02/M05 A3027 RMK A01 T00241051  RH  058%=      5-min Rain = 0
KAM1 200017Z 05005KT 02/M05 A3027 RMK A01 T00231052  RH  057%=      5-min Rain = 0
KAM1 200018Z 05005KT 02/M05 A3027 RMK A01 T00221053  RH  057%=      5-min Rain = 0
KAM1 200019Z 05005KT 02/M05 A3027 RMK A01 T00211054  RH  057%=      5-min Rain = 0
KAM1 200020Z 05005KT 02/M06 A3027 RMK A01 T00201055  RH  058%=      5-min Rain = 0
KAM1 200021Z 05005KT 02/M06 A3027 RMK A01 T00191055  RH  058%=      5-min Rain = 0
KAM1 200022Z 05005KT 02/M06 A3027 RMK A01 T00171055  RH  059%=      5-min Rain = 0
KAM1 200023Z 06005KT 02/M06 A3027 RMK A01 T00161055  RH  059%=      5-min Rain = 0
KAM1 200024Z 06005KT 02/M05 A3027 RMK A01 T00161054  RH  060%=      5-min Rain = 0
KAM1 200025Z 06004KT 02/M05 A3027 RMK A01 T00161054  RH  060%=      5-min Rain = 0
KAM1 200026Z 06004KT 02/M05 A3027 RMK A01 T00161054  RH  060%=      5-min Rain = 0
KAM1 200027Z 06004KT 02/M05 A3027 RMK A01 T00161054  RH  060%=      5-min Rain = 0
KAM1 200028Z 06005KT 02/M05 A3027 RMK A01 T00161054  RH  060%=      5-min Rain = 0
KAM1 200029Z 06005KT 02/M05 A3027 RMK A01 T00151053  RH  060%=      5-min Rain = 0
KAM1 200030Z 06005KT 02/M05 A3027 RMK A01 T00151053  RH  060%=      5-min Rain = 0
KAM1 200031Z 06005KT 02/M05 A3027 RMK A01 T00151052  RH  061%=      5-min Rain = 0
KAM1 200032Z 06005KT 02/M05 A3027 RMK A01 T00151051  RH  062%=      5-min Rain = 0
KAM1 200033Z 06005KT 02/M05 A3027 RMK A01 T00151050  RH  062%=      5-min Rain = 0
KAM1 200034Z 06005KT 02/M05 A3027 RMK A01 T00151050  RH  062%=      5-min Rain = 0
KAM1 200035Z 06005KT 02/M05 A3027 RMK A01 T00151052  RH  061%=      5-min Rain = 0
KAM1 200036Z 06006KT 01/M05 A3027 RMK A01 T00141053  RH  061%=      5-min Rain = 0
KAM1 200037Z 06006KT 01/M05 A3027 RMK A01 T00131053  RH  062%=      5-min Rain = 0
KAM1 200038Z 06006KT 01/M05 A3027 RMK A01 T00121053  RH  062%=      5-min Rain = 0
KAM1 200039Z 06005KT 01/M05 A3027 RMK A01 T00111054  RH  062%=      5-min Rain = 0
KAM1 200040Z 07005KT 01/M05 A3027 RMK A01 T00091054  RH  062%=      5-min Rain = 0
KAM1 200041Z 07005KT 01/M06 A3027 RMK A01 T00081055  RH  063%=      5-min Rain = 0
KAM1 200042Z 07006KT 01/M06 A3027 RMK A01 T00071055  RH  063%=      5-min Rain = 0
KAM1 200043Z 07006KT 01/M05 A3027 RMK A01 T00071054  RH  064%=      5-min Rain = 0
KAM1 200044Z 07006KT 01/M05 A3027 RMK A01 T00071054  RH  064%=      5-min Rain = 0
KAM1 200045Z 07005KT 01/M06 A3027 RMK A01 T00061055  RH  064%=      5-min Rain = 0
KAM1 200046Z 07005KT 01/M06 A3027 RMK A01 T00051055  RH  064%=      5-min Rain = 0
KAM1 200047Z 08005KT 00/M05 A3027 RMK A01 T00041054  RH  065%=      5-min Rain = 0
KAM1 200048Z 08004KT 00/M05 A3027 RMK A01 T00031054  RH  066%=      5-min Rain = 0
KAM1 200049Z 08004KT 00/M06 A3027 RMK A01 T00011055  RH  066%=      5-min Rain = 0
KAM1 200050Z 09004KT 00/06 A3027 RMK A01 T00000-55  RH  066%=      5-min Rain = 0
KAM1 200051Z 09004KT 00/06 A3026 RMK A01 T00000-55  RH  067%=      5-min Rain = 0
KAM1 200052Z 09004KT 00/M06 A3026 RMK A01 T00021055  RH  066%=      5-min Rain = 0
KAM1 200053Z 09005KT 00/M06 A3026 RMK A01 T00021055  RH  065%=      5-min Rain = 0
KAM1 200054Z 09005KT 01/M05 A3026 RMK A01 T00051053  RH  065%=      5-min Rain = 0
KAM1 200055Z 09005KT 01/M05 A3026 RMK A01 T00081051  RH  065%=      5-min Rain = 0
KAM1 200056Z 08005KT 01/M05 A3026 RMK A01 T00101051  RH  064%=      5-min Rain = 0
KAM1 200057Z 08005KT 01/M05 A3026 RMK A01 T00111051  RH  063%=      5-min Rain = 0
KAM1 200058Z 08005KT 01/M05 A3026 RMK A01 T00121051  RH  063%=      5-min Rain = 0
KAM1 200059Z 08005KT 01/M05 A3026 RMK A01 T00131051  RH  062%=      5-min Rain = 0
KAM1 200100Z 08005KT 01/M05 A3026 RMK A01 T00131052  RH  062%=      5-min Rain = 0
KAM1 200101Z 08005KT 01/M05 A3026 RMK A01 T00121053  RH  062%=      5-min Rain = 0
KAM1 200102Z 08005KT 01/M05 A3026 RMK A01 T00111053  RH  062%=      5-min Rain = 0
KAM1 200103Z 08006KT 01/M05 A3026 RMK A01 T00101053  RH  063%=      5-min Rain = 0
KAM1 200104Z 08006KT 01/M05 A3026 RMK A01 T00101054  RH  063%=      5-min Rain = 0
KAM1 200105Z 08006KT 01/M05 A3026 RMK A01 T00091054  RH  063%=      5-min Rain = 0
KAM1 200106Z 08006KT 01/M05 A3025 RMK A01 T00091054  RH  063%=      5-min Rain = 0
KAM1 200107Z 08006KT 01/M05 A3025 RMK A01 T00081054  RH  063%=      5-min Rain = 0
KAM1 200108Z 09006KT 01/M05 A3025 RMK A01 T00071054  RH  063%=      5-min Rain = 0
KAM1 200109Z 08006KT 01/M06 A3025 RMK A01 T00061055  RH  064%=      5-min Rain = 0
KAM1 200110Z 09006KT 01/M06 A3025 RMK A01 T00051055  RH  064%=      5-min Rain = 0
KAM1 200111Z 09006KT 01/M06 A3025 RMK A01 T00051055  RH  064%=      5-min Rain = 0
KAM1 200112Z 09006KT 00/M06 A3025 RMK A01 T00041055  RH  065%=      5-min Rain = 0
KAM1 200113Z 09007KT 00/M06 A3024 RMK A01 T00041055  RH  065%=      5-min Rain = 0
KAM1 200114Z 09007KT 00/M06 A3024 RMK A01 T00041055  RH  065%=      5-min Rain = 0
KAM1 200115Z 08007KT 00/M06 A3024 RMK A01 T00031057  RH  064%=      5-min Rain = 0
KAM1 200116Z 08007KT 00/06 A3024 RMK A01 T00-00-59  RH  064%=      5-min Rain = 0
KAM1 200117Z 08007KT M00/M06 A3024 RMK A01 T10031061  RH  065%=      5-min Rain = 0
KAM1 200118Z 09007KT M01/M06 A3024 RMK A01 T10071062  RH  066%=      5-min Rain = 0
KAM1 200119Z 09007KT M01/M06 A3024 RMK A01 T10091063  RH  067%=      5-min Rain = 0
KAM1 200120Z 09007KT M01/M06 A3024 RMK A01 T10111062  RH  068%=      5-min Rain = 0
KAM1 200121Z 09007KT M01/M06 A3024 RMK A01 T10131061  RH  069%=      5-min Rain = 0
KAM1 200122Z 09007KT M01/M06 A3024 RMK A01 T10131060  RH  070%=      5-min Rain = 0
KAM1 200123Z 08007KT M01/M06 A3024 RMK A01 T10141060  RH  071%=      5-min Rain = 0
KAM1 200124Z 08007KT M01/M06 A3023 RMK A01 T10141060  RH  071%=      5-min Rain = 0
KAM1 200125Z 08008KT M02/M06 A3023 RMK A01 T10151059  RH  072%=      5-min Rain = 0
KAM1 200126Z 08008KT M02/M06 A3023 RMK A01 T10151058  RH  073%=      5-min Rain = 0
KAM1 200127Z 08008KT M02/M06 A3023 RMK A01 T10151057  RH  073%=      5-min Rain = 0
KAM1 200128Z 08008KT M02/M06 A3023 RMK A01 T10151056  RH  073%=      5-min Rain = 0
KAM1 200129Z 08008KT M01/M06 A3023 RMK A01 T10141055  RH  073%=      5-min Rain = 0
KAM1 200130Z 08008KT M01/M06 A3023 RMK A01 T10131055  RH  073%=      5-min Rain = 0
KAM1 200131Z 08008KT M01/M06 A3023 RMK A01 T10131055  RH  073%=      5-min Rain = 0
KAM1 200132Z 08008KT M01/M06 A3023 RMK A01 T10121055  RH  073%=      5-min Rain = 0
KAM1 200133Z 07009KT M01/M06 A3023 RMK A01 T10121055  RH  073%=      5-min Rain = 0
KAM1 200134Z 07009KT M01/M06 A3024 RMK A01 T10121055  RH  072%=      5-min Rain = 0
KAM1 200135Z 07009KT M01/M06 A3024 RMK A01 T10141057  RH  073%=      5-min Rain = 0
KAM1 200136Z 07010KT M02/M06 A3024 RMK A01 T10161058  RH  073%=      5-min Rain = 0
KAM1 200137Z 07010KT M02/M06 A3024 RMK A01 T10171058  RH  073%=      5-min Rain = 0
KAM1 200138Z 07010KT M02/M06 A3024 RMK A01 T10171058  RH  074%=      5-min Rain = 0
KAM1 200139Z 07010KT M02/M06 A3024 RMK A01 T10171056  RH  074%=      5-min Rain = 0
KAM1 200140Z 07009KT M02/M06 A3024 RMK A01 T10161055  RH  075%=      5-min Rain = 0
KAM1 200141Z 07009KT M01/M05 A3024 RMK A01 T10141054  RH  074%=      5-min Rain = 0
KAM1 200142Z 07009KT M01/M05 A3024 RMK A01 T10141054  RH  074%=      5-min Rain = 0
KAM1 200143Z 07008KT M01/M05 A3024 RMK A01 T10131053  RH  074%=      5-min Rain = 0
KAM1 200144Z 07008KT M01/M05 A3024 RMK A01 T10121053  RH  074%=      5-min Rain = 0
KAM1 200145Z 08007KT M01/M05 A3024 RMK A01 T10121053  RH  074%=      5-min Rain = 0
KAM1 200146Z 08007KT M01/M05 A3024 RMK A01 T10111053  RH  073%=      5-min Rain = 0
KAM1 200147Z 08007KT M01/M05 A3024 RMK A01 T10121054  RH  073%=      5-min Rain = 0
KAM1 200148Z 07007KT M01/M06 A3024 RMK A01 T10131055  RH  073%=      5-min Rain = 0
KAM1 200149Z 07007KT M01/M06 A3024 RMK A01 T10131055  RH  073%=      5-min Rain = 0
KAM1 200150Z 07007KT M01/M06 A3024 RMK A01 T10141055  RH  074%=      5-min Rain = 0
KAM1 200151Z 07007KT M02/M06 A3024 RMK A01 T10151055  RH  074%=      5-min Rain = 0
KAM1 200152Z 07007KT M02/M06 A3024 RMK A01 T10151056  RH  074%=      5-min Rain = 0
KAM1 200153Z 07007KT M02/M06 A3024 RMK A01 T10161056  RH  074%=      5-min Rain = 0
KAM1 200154Z 07007KT M02/M06 A3025 RMK A01 T10161056  RH  074%=      5-min Rain = 0
KAM1 200155Z 07006KT M02/M06 A3025 RMK A01 T10161056  RH  074%=      5-min Rain = 0
KAM1 200156Z 07007KT M02/M06 A3025 RMK A01 T10171056  RH  074%=      5-min Rain = 0
KAM1 200157Z 07006KT M02/M06 A3025 RMK A01 T10171056  RH  075%=      5-min Rain = 0
KAM1 200158Z 07006KT M02/M06 A3026 RMK A01 T10171055  RH  075%=      5-min Rain = 0
KAM1 200159Z 07005KT M02/M06 A3026 RMK A01 T10171055  RH  075%=      5-min Rain = 0
KAM1 200200Z 07004KT M02/M06 A3026 RMK A01 T10161055  RH  075%=      5-min Rain = 0
KAM1 200201Z 07004KT M02/M06 A3026 RMK A01 T10171056  RH  075%=      5-min Rain = 0
KAM1 200202Z 07004KT M02/M06 A3026 RMK A01 T10171056  RH  074%=      5-min Rain = 0
KAM1 200203Z 07004KT M02/M06 A3026 RMK A01 T10171057  RH  074%=      5-min Rain = 0
KAM1 200204Z 07004KT M02/M06 A3026 RMK A01 T10181057  RH  074%=      5-min Rain = 0
KAM1 200205Z 07003KT M02/M06 A3026 RMK A01 T10181057  RH  075%=      5-min Rain = 0
KAM1 200206Z 07002KT M02/M06 A3026 RMK A01 T10181057  RH  075%=      5-min Rain = 0
KAM1 200207Z 07002KT M02/M06 A3027 RMK A01 T10181057  RH  075%=      5-min Rain = 0
KAM1 200208Z 08002KT M02/M06 A3027 RMK A01 T10181057  RH  075%=      5-min Rain = 0
KAM1 200209Z 08002KT M02/M06 A3027 RMK A01 T10181057  RH  075%=      5-min Rain = 0
KAM1 200210Z 08002KT M02/M06 A3027 RMK A01 T10181058  RH  074%=      5-min Rain = 0
KAM1 200211Z 08002KT M02/M06 A3027 RMK A01 T10181058  RH  074%=      5-min Rain = 0
KAM1 200212Z 07003KT M02/M06 A3027 RMK A01 T10171058  RH  074%=      5-min Rain = 0
KAM1 200213Z 07004KT M02/M06 A3026 RMK A01 T10171058  RH  074%=      5-min Rain = 0
KAM1 200214Z 06004KT M02/M06 A3026 RMK A01 T10181059  RH  074%=      5-min Rain = 0
KAM1 200215Z 06004KT M02/M06 A3026 RMK A01 T10181058  RH  074%=      5-min Rain = 0
KAM1 200216Z 07004KT M02/M06 A3026 RMK A01 T10181057  RH  074%=      5-min Rain = 0
KAM1 200217Z 07004KT M02/M06 A3027 RMK A01 T10181057  RH  074%=      5-min Rain = 0
KAM1 200218Z 07004KT M02/M06 A3027 RMK A01 T10171057  RH  074%=      5-min Rain = 0
KAM1 200219Z 08004KT M02/M06 A3027 RMK A01 T10171056  RH  074%=      5-min Rain = 0
KAM1 200220Z 09004KT M02/M06 A3027 RMK A01 T10161057  RH  074%=      5-min Rain = 0
KAM1 200221Z 09004KT M02/M06 A3027 RMK A01 T10161058  RH  073%=      5-min Rain = 0
KAM1 200222Z 10004KT M02/M06 A3027 RMK A01 T10171058  RH  073%=      5-min Rain = 0
KAM1 200223Z 09004KT M02/M06 A3027 RMK A01 T10171058  RH  074%=      5-min Rain = 0
KAM1 200224Z 09004KT M02/M06 A3026 RMK A01 T10161056  RH  074%=      5-min Rain = 0
KAM1 200225Z 08004KT M01/M05 A3026 RMK A01 T10131054  RH  074%=      5-min Rain = 0
KAM1 200226Z 08004KT M01/M05 A3026 RMK A01 T10121053  RH  073%=      5-min Rain = 0
KAM1 200227Z 08004KT M01/M05 A3026 RMK A01 T10101053  RH  072%=      5-min Rain = 0
KAM1 200228Z 09004KT M01/M05 A3026 RMK A01 T10091054  RH  072%=      5-min Rain = 0
KAM1 200229Z 10003KT M01/M05 A3026 RMK A01 T10091054  RH  071%=      5-min Rain = 0
KAM1 200230Z 10004KT M01/M05 A3026 RMK A01 T10091054  RH  071%=      5-min Rain = 0
KAM1 200231Z 11004KT M01/M06 A3026 RMK A01 T10091056  RH  070%=      5-min Rain = 0
KAM1 200232Z 10004KT M01/M06 A3026 RMK A01 T10111058  RH  070%=      5-min Rain = 0
KAM1 200233Z 10004KT M01/M06 A3026 RMK A01 T10141059  RH  071%=      5-min Rain = 0
KAM1 200234Z 10004KT M01/M06 A3026 RMK A01 T10141057  RH  073%=      5-min Rain = 0
KAM1 200235Z 11004KT M01/M06 A3026 RMK A01 T10131056  RH  073%=      5-min Rain = 0
KAM1 200236Z 12004KT M01/M06 A3026 RMK A01 T10131056  RH  073%=      5-min Rain = 0
KAM1 200237Z 12003KT M01/M06 A3026 RMK A01 T10131056  RH  072%=      5-min Rain = 0
KAM1 200238Z 12003KT M01/M06 A3027 RMK A01 T10131056  RH  073%=      5-min Rain = 0
KAM1 200239Z 13003KT M01/M06 A3027 RMK A01 T10141057  RH  072%=      5-min Rain = 0
KAM1 200240Z 13003KT M02/M06 A3027 RMK A01 T10171061  RH  072%=      5-min Rain = 0
KAM1 200241Z 13003KT M02/M06 A3027 RMK A01 T10201063  RH  072%=      5-min Rain = 0
KAM1 200242Z 12004KT M02/M06 A3026 RMK A01 T10211060  RH  075%=      5-min Rain = 0
KAM1 200243Z 11004KT M02/M06 A3026 RMK A01 T10211057  RH  076%=      5-min Rain = 0
KAM1 200244Z 12004KT M02/M06 A3026 RMK A01 T10191055  RH  077%=      5-min Rain = 0
KAM1 200245Z 13005KT M02/M05 A3026 RMK A01 T10171053  RH  077%=      5-min Rain = 0
KAM1 200246Z 14005KT M02/M06 A3026 RMK A01 T10181057  RH  075%=      5-min Rain = 0
KAM1 200247Z 14005KT M02/M07 A3026 RMK A01 T10231065  RH  073%=      5-min Rain = 0
KAM1 200248Z 14004KT M03/M07 A3026 RMK A01 T10281069  RH  073%=      5-min Rain = 0
KAM1 200249Z 13005KT M03/M07 A3026 RMK A01 T10311069  RH  075%=      5-min Rain = 0
KAM1 200250Z 13004KT M03/M07 A3026 RMK A01 T10321068  RH  076%=      5-min Rain = 0
KAM1 200251Z 12004KT M03/M07 A3026 RMK A01 T10331067  RH  077%=      5-min Rain = 0
KAM1 200252Z 13004KT M03/M07 A3026 RMK A01 T10331066  RH  078%=      5-min Rain = 0
KAM1 200253Z 13004KT M03/M07 A3026 RMK A01 T10331066  RH  078%=      5-min Rain = 0
KAM1 200254Z 13005KT M03/M06 A3026 RMK A01 T10331064  RH  079%=      5-min Rain = 0
KAM1 200255Z 12004KT M03/M06 A3026 RMK A01 T10321064  RH  079%=      5-min Rain = 0
KAM1 200256Z 12004KT M03/M06 A3026 RMK A01 T10321064  RH  079%=      5-min Rain = 0
KAM1 200257Z 12005KT M03/M06 A3025 RMK A01 T10321063  RH  079%=      5-min Rain = 0
KAM1 200258Z 13005KT M03/M06 A3025 RMK A01 T10311061  RH  080%=      5-min Rain = 0
KAM1 200259Z 13006KT M03/M06 A3025 RMK A01 T10291056  RH  081%=      5-min Rain = 0
KAM1 200300Z 14006KT M03/M06 A3025 RMK A01 T10281058  RH  080%=      5-min Rain = 0
KAM1 200301Z 14005KT M03/M06 A3026 RMK A01 T10281059  RH  080%=      5-min Rain = 0
KAM1 200302Z 14005KT M03/M06 A3026 RMK A01 T10291059  RH  080%=      5-min Rain = 0
KAM1 200303Z 14005KT M03/M06 A3026 RMK A01 T10301059  RH  080%=      5-min Rain = 0
KAM1 200304Z 14005KT M03/M06 A3026 RMK A01 T10301059  RH  080%=      5-min Rain = 0
KAM1 200305Z 13005KT M03/M06 A3025 RMK A01 T10291058  RH  081%=      5-min Rain = 0
KAM1 200306Z 13005KT M03/M05 A3025 RMK A01 T10271054  RH  081%=      5-min Rain = 0
KAM1 200307Z 12005KT M02/M05 A3025 RMK A01 T10241052  RH  081%=      5-min Rain = 0
KAM1 200308Z 12004KT M02/M05 A3025 RMK A01 T10211051  RH  080%=      5-min Rain = 0
KAM1 200309Z 12005KT M02/M05 A3025 RMK A01 T10201052  RH  079%=      5-min Rain = 0
KAM1 200310Z 12005KT M02/M05 A3025 RMK A01 T10191052  RH  079%=      5-min Rain = 0
KAM1 200311Z 12006KT M02/M05 A3025 RMK A01 T10181050  RH  079%=      5-min Rain = 0
KAM1 200312Z 12006KT M02/M05 A3026 RMK A01 T10171050  RH  078%=      5-min Rain = 0
KAM1 200313Z 12006KT M02/M05 A3025 RMK A01 T10161051  RH  077%=      5-min Rain = 0
KAM1 200314Z 12006KT M02/M05 A3025 RMK A01 T10161052  RH  077%=      5-min Rain = 0
KAM1 200315Z 12006KT M02/M05 A3025 RMK A01 T10161052  RH  076%=      5-min Rain = 0
KAM1 200316Z 12005KT M02/M05 A3025 RMK A01 T10171054  RH  076%=      5-min Rain = 0
KAM1 200317Z 12006KT M02/M05 A3025 RMK A01 T10171054  RH  076%=      5-min Rain = 0
KAM1 200318Z 12006KT M02/M06 A3025 RMK A01 T10171055  RH  076%=      5-min Rain = 0
KAM1 200319Z 12006KT M02/M06 A3024 RMK A01 T10171055  RH  075%=      5-min Rain = 0
KAM1 200320Z 12006KT M02/M06 A3024 RMK A01 T10181057  RH  075%=      5-min Rain = 0
KAM1 200321Z 12006KT M02/M06 A3024 RMK A01 T10201058  RH  075%=      5-min Rain = 0
KAM1 200322Z 12005KT M02/M06 A3025 RMK A01 T10211059  RH  075%=      5-min Rain = 0
KAM1 200323Z 13005KT M02/M06 A3025 RMK A01 T10211058  RH  076%=      5-min Rain = 0
KAM1 200324Z 13005KT M02/M06 A3025 RMK A01 T10211057  RH  076%=      5-min Rain = 0
KAM1 200325Z 13005KT M02/M06 A3025 RMK A01 T10201056  RH  076%=      5-min Rain = 0
KAM1 200326Z 13005KT M02/M06 A3025 RMK A01 T10191055  RH  076%=      5-min Rain = 0
KAM1 200327Z 13005KT M02/M05 A3025 RMK A01 T10161053  RH  076%=      5-min Rain = 0
KAM1 200328Z 12005KT M01/M05 A3025 RMK A01 T10141052  RH  076%=      5-min Rain = 0
KAM1 200329Z 12004KT M01/M05 A3025 RMK A01 T10131052  RH  075%=      5-min Rain = 0
KAM1 200330Z 12005KT M01/M05 A3025 RMK A01 T10121053  RH  074%=      5-min Rain = 0
KAM1 200331Z 12005KT M01/M05 A3025 RMK A01 T10121053  RH  074%=      5-min Rain = 0
KAM1 200332Z 12005KT M01/M05 A3025 RMK A01 T10121053  RH  073%=      5-min Rain = 0
KAM1 200333Z 12004KT M01/M05 A3026 RMK A01 T10121053  RH  073%=      5-min Rain = 0
KAM1 200334Z 12004KT M01/M05 A3026 RMK A01 T10121054  RH  073%=      5-min Rain = 0
KAM1 200335Z 12005KT M01/M05 A3025 RMK A01 T10121054  RH  073%=      5-min Rain = 0
KAM1 200336Z 13005KT M01/M05 A3025 RMK A01 T10121054  RH  073%=      5-min Rain = 0
KAM1 200337Z 13006KT M01/M06 A3025 RMK A01 T10121055  RH  073%=      5-min Rain = 0
KAM1 200338Z 14006KT M02/M06 A3024 RMK A01 T10151058  RH  072%=      5-min Rain = 0
KAM1 200339Z 14007KT M02/M06 A3024 RMK A01 T10181061  RH  073%=      5-min Rain = 0
KAM1 200340Z 14007KT M02/M06 A3024 RMK A01 T10211062  RH  074%=      5-min Rain = 0
KAM1 200341Z 14007KT M02/M06 A3023 RMK A01 T10241062  RH  075%=      5-min Rain = 0
KAM1 200342Z 14007KT M03/M06 A3023 RMK A01 T10251061  RH  076%=      5-min Rain = 0
KAM1 200343Z 14006KT M03/M06 A3023 RMK A01 T10251060  RH  077%=      5-min Rain = 0
KAM1 200344Z 14006KT M03/M06 A3024 RMK A01 T10261060  RH  078%=      5-min Rain = 0
KAM1 200345Z 14005KT M03/M06 A3024 RMK A01 T10271060  RH  078%=      5-min Rain = 0
KAM1 200346Z 14005KT M03/M06 A3024 RMK A01 T10281060  RH  079%=      5-min Rain = 0
KAM1 200347Z 14005KT M03/M06 A3024 RMK A01 T10281059  RH  079%=      5-min Rain = 0
KAM1 200348Z 14005KT M03/M06 A3023 RMK A01 T10281058  RH  080%=      5-min Rain = 0
KAM1 200349Z 14005KT M03/M06 A3024 RMK A01 T10281057  RH  080%=      5-min Rain = 0
KAM1 200350Z 15005KT M03/M06 A3024 RMK A01 T10271055  RH  081%=      5-min Rain = 0
KAM1 200351Z 15005KT M03/M05 A3024 RMK A01 T10251054  RH  081%=      5-min Rain = 0
KAM1 200352Z 16006KT M03/M05 A3025 RMK A01 T10251054  RH  081%=      5-min Rain = 0
KAM1 200353Z 17005KT M02/M05 A3025 RMK A01 T10241054  RH  080%=      5-min Rain = 0
KAM1 200354Z 17006KT M03/M06 A3025 RMK A01 T10251057  RH  079%=      5-min Rain = 0
KAM1 200355Z 17006KT M03/M06 A3024 RMK A01 T10271059  RH  078%=      5-min Rain = 0
KAM1 200356Z 16006KT M03/M06 A3024 RMK A01 T10291062  RH  078%=      5-min Rain = 0
KAM1 200357Z 16005KT M03/M06 A3024 RMK A01 T10321064  RH  078%=      5-min Rain = 0
KAM1 200358Z 16005KT M03/M06 A3024 RMK A01 T10331064  RH  079%=      5-min Rain = 0
KAM1 200359Z 16005KT M04/M06 A3024 RMK A01 T10351064  RH  080%=      5-min Rain = 0
KAM1 200400Z 17005KT M04/M06 A3024 RMK A01 T10351062  RH  081%=      5-min Rain = 0
KAM1 200401Z 17006KT M04/M06 A3024 RMK A01 T10351062  RH  082%=      5-min Rain = 0
KAM1 200402Z 17006KT M04/M06 A3024 RMK A01 T10351061  RH  082%=      5-min Rain = 0
KAM1 200403Z 17006KT M04/M06 A3024 RMK A01 T10351060  RH  082%=      5-min Rain = 0
KAM1 200404Z 17006KT M03/M06 A3024 RMK A01 T10341060  RH  082%=      5-min Rain = 0
KAM1 200405Z 17007KT M03/M06 A3024 RMK A01 T10341060  RH  082%=      5-min Rain = 0
KAM1 200406Z 17006KT M03/M06 A3024 RMK A01 T10341059  RH  083%=      5-min Rain = 0
KAM1 200407Z 17006KT M03/M06 A3024 RMK A01 T10341059  RH  082%=      5-min Rain = 0
KAM1 200408Z 17006KT M03/M06 A3024 RMK A01 T10341060  RH  082%=      5-min Rain = 0
KAM1 200409Z 17006KT M04/M06 A3024 RMK A01 T10351061  RH  082%=      5-min Rain = 0
KAM1 200410Z 18006KT M04/M06 A3024 RMK A01 T10361063  RH  082%=      5-min Rain = 0
KAM1 200411Z 18006KT M04/M06 A3024 RMK A01 T10371063  RH  082%=      5-min Rain = 0
KAM1 200412Z 18006KT M04/M06 A3024 RMK A01 T10361059  RH  084%=      5-min Rain = 0
KAM1 200413Z 18006KT M03/M05 A3024 RMK A01 T10341054  RH  086%=      5-min Rain = 0
KAM1 200414Z 18006KT M03/M06 A3024 RMK A01 T10321055  RH  084%=      5-min Rain = 0
KAM1 200415Z 18006KT M03/M06 A3024 RMK A01 T10321058  RH  083%=      5-min Rain = 0
KAM1 200416Z 18006KT M03/M06 A3024 RMK A01 T10341061  RH  082%=      5-min Rain = 0
KAM1 200417Z 19006KT M04/M06 A3024 RMK A01 T10351062  RH  082%=      5-min Rain = 0
KAM1 200418Z 19006KT M04/M06 A3024 RMK A01 T10361063  RH  082%=      5-min Rain = 0
KAM1 200419Z 19006KT M04/M06 A3024 RMK A01 T10361063  RH  082%=      5-min Rain = 0
KAM1 200420Z 19005KT M04/M06 A3024 RMK A01 T10371063  RH  082%=      5-min Rain = 0
KAM1 200421Z 19005KT M04/M07 A3024 RMK A01 T10381065  RH  082%=      5-min Rain = 0
KAM1 200422Z 19005KT M04/M07 A3024 RMK A01 T10391067  RH  081%=      5-min Rain = 0
KAM1 200423Z 19005KT M04/M07 A3024 RMK A01 T10401067  RH  082%=      5-min Rain = 0
KAM1 200424Z 20005KT M04/M06 A3024 RMK A01 T10401064  RH  083%=      5-min Rain = 0
KAM1 200425Z 20004KT M04/M06 A3024 RMK A01 T10391062  RH  084%=      5-min Rain = 0
KAM1 200426Z 20004KT M04/M06 A3024 RMK A01 T10391061  RH  084%=      5-min Rain = 0
KAM1 200427Z 20004KT M04/M06 A3024 RMK A01 T10391061  RH  084%=      5-min Rain = 0
KAM1 200428Z 20004KT M04/M06 A3024 RMK A01 T10381060  RH  085%=      5-min Rain = 0
KAM1 200429Z 20004KT M04/M06 A3024 RMK A01 T10381060  RH  085%=      5-min Rain = 0
KAM1 200430Z 19003KT M04/M06 A3024 RMK A01 T10381062  RH  084%=      5-min Rain = 0
KAM1 200431Z 19003KT M04/M06 A3024 RMK A01 T10391064  RH  083%=      5-min Rain = 0
KAM1 200432Z 18003KT M04/M06 A3024 RMK A01 T10401064  RH  084%=      5-min Rain = 0
KAM1 200433Z 17002KT M04/M06 A3025 RMK A01 T10401061  RH  085%=      5-min Rain = 0
KAM1 200434Z 17002KT M04/M06 A3025 RMK A01 T10391059  RH  086%=      5-min Rain = 0
KAM1 200435Z 16002KT M04/M06 A3025 RMK A01 T10381059  RH  085%=      5-min Rain = 0
KAM1 200436Z 16002KT M04/M07 A3025 RMK A01 T10401066  RH  083%=      5-min Rain = 0
KAM1 200437Z 16002KT M04/M06 A3025 RMK A01 T10421064  RH  084%=      5-min Rain = 0
KAM1 200438Z 17002KT M04/M06 A3025 RMK A01 T10411060  RH  086%=      5-min Rain = 0
KAM1 200439Z 16002KT M04/M06 A3025 RMK A01 T10401061  RH  086%=      5-min Rain = 0
KAM1 200440Z 17002KT M04/M06 A3025 RMK A01 T10401061  RH  085%=      5-min Rain = 0
KAM1 200441Z 17002KT M04/M06 A3025 RMK A01 T10401062  RH  085%=      5-min Rain = 0
KAM1 200442Z 17002KT M04/M06 A3025 RMK A01 T10391058  RH  087%=      5-min Rain = 0
KAM1 200443Z 16002KT M04/M05 A3025 RMK A01 T10381054  RH  089%=      5-min Rain = 0
KAM1 200444Z 16003KT M04/M05 A3025 RMK A01 T10351050  RH  090%=      5-min Rain = 0
KAM1 200445Z 15003KT M03/M05 A3025 RMK A01 T10321047  RH  090%=      5-min Rain = 0
KAM1 200446Z 14003KT M03/M05 A3025 RMK A01 T10291045  RH  089%=      5-min Rain = 0
KAM1 200447Z 14003KT M03/M05 A3025 RMK A01 T10271046  RH  087%=      5-min Rain = 0
KAM1 200448Z 14003KT M03/M05 A3025 RMK A01 T10261047  RH  085%=      5-min Rain = 0
KAM1 200449Z 15003KT M03/M05 A3025 RMK A01 T10251048  RH  084%=      5-min Rain = 0
KAM1 200450Z 16003KT M02/M05 A3025 RMK A01 T10241049  RH  083%=      5-min Rain = 0
KAM1 200451Z 17003KT M02/M05 A3025 RMK A01 T10241050  RH  083%=      5-min Rain = 0
KAM1 200452Z 18004KT M02/M05 A3025 RMK A01 T10241050  RH  082%=      5-min Rain = 0
KAM1 200453Z 18004KT M03/M05 A3025 RMK A01 T10251051  RH  082%=      5-min Rain = 0
KAM1 200454Z 18005KT M03/M05 A3025 RMK A01 T10251050  RH  083%=      5-min Rain = 0
KAM1 200455Z 18004KT M03/M05 A3025 RMK A01 T10251050  RH  083%=      5-min Rain = 0
KAM1 200456Z 18004KT M03/M05 A3025 RMK A01 T10251051  RH  082%=      5-min Rain = 0
KAM1 200457Z 17004KT M03/M05 A3025 RMK A01 T10251052  RH  082%=      5-min Rain = 0
KAM1 200458Z 17004KT M03/M05 A3025 RMK A01 T10251051  RH  082%=      5-min Rain = 0
KAM1 200459Z 17005KT M03/M05 A3025 RMK A01 T10251051  RH  082%=      5-min Rain = 0
KAM1 200500Z 17005KT M03/M05 A3025 RMK A01 T10251051  RH  083%=      5-min Rain = 0
KAM1 200501Z 17005KT M03/M05 A3026 RMK A01 T10251051  RH  083%=      5-min Rain = 0
KAM1 200502Z 17004KT M03/M05 A3026 RMK A01 T10251051  RH  083%=      5-min Rain = 0
KAM1 200503Z 17004KT M03/M05 A3026 RMK A01 T10251051  RH  083%=      5-min Rain = 0
KAM1 200504Z 17005KT M03/M05 A3026 RMK A01 T10261052  RH  082%=      5-min Rain = 0
KAM1 200505Z 17005KT M03/M06 A3026 RMK A01 T10291056  RH  082%=      5-min Rain = 0
KAM1 200506Z 17005KT M03/M06 A3026 RMK A01 T10331061  RH  081%=      5-min Rain = 0
KAM1 200507Z 17006KT M04/M06 A3026 RMK A01 T10351059  RH  083%=      5-min Rain = 0
KAM1 200508Z 17006KT M04/M06 A3025 RMK A01 T10361060  RH  084%=      5-min Rain = 0
KAM1 200509Z 18006KT M04/M06 A3025 RMK A01 T10381062  RH  083%=      5-min Rain = 0
KAM1 200510Z 18006KT M04/M06 A3025 RMK A01 T10391062  RH  084%=      5-min Rain = 0
KAM1 200511Z 18006KT M04/M06 A3025 RMK A01 T10391062  RH  084%=      5-min Rain = 0
KAM1 200512Z 18006KT M04/M06 A3025 RMK A01 T10401064  RH  083%=      5-min Rain = 0
KAM1 200513Z 18006KT M04/M07 A3025 RMK A01 T10421069  RH  082%=      5-min Rain = 0
KAM1 200514Z 18006KT M05/M07 A3025 RMK A01 T10451072  RH  081%=      5-min Rain = 0
KAM1 200515Z 18006KT M05/M07 A3025 RMK A01 T10471074  RH  081%=      5-min Rain = 0
KAM1 200516Z 18006KT M05/M08 A3025 RMK A01 T10481075  RH  082%=      5-min Rain = 0
KAM1 200517Z 18005KT M05/M08 A3025 RMK A01 T10501076  RH  082%=      5-min Rain = 0
KAM1 200518Z 18005KT M05/M08 A3025 RMK A01 T10501075  RH  083%=      5-min Rain = 0
KAM1 200519Z 18005KT M05/M07 A3025 RMK A01 T10511074  RH  084%=      5-min Rain = 0
KAM1 200520Z 18005KT M05/M07 A3025 RMK A01 T10511073  RH  085%=      5-min Rain = 0
KAM1 200521Z 19005KT M05/M07 A3026 RMK A01 T10511071  RH  086%=      5-min Rain = 0
KAM1 200522Z 19004KT M05/M07 A3026 RMK A01 T10501069  RH  087%=      5-min Rain = 0
KAM1 200523Z 18004KT M05/M07 A3026 RMK A01 T10501067  RH  088%=      5-min Rain = 0
KAM1 200524Z 18005KT M05/M07 A3026 RMK A01 T10491067  RH  087%=      5-min Rain = 0
KAM1 200525Z 17005KT M05/M07 A3026 RMK A01 T10481066  RH  087%=      5-min Rain = 0
KAM1 200526Z 17005KT M05/M06 A3025 RMK A01 T10461063  RH  088%=      5-min Rain = 0
KAM1 200527Z 17005KT M04/M06 A3026 RMK A01 T10431060  RH  088%=      5-min Rain = 0
KAM1 200528Z 17005KT M04/M06 A3026 RMK A01 T10421060  RH  087%=      5-min Rain = 0
KAM1 200529Z 18004KT M04/M06 A3026 RMK A01 T10421060  RH  087%=      5-min Rain = 0
KAM1 200530Z 18004KT M04/M06 A3026 RMK A01 T10411059  RH  087%=      5-min Rain = 0
KAM1 200531Z 19005KT M04/M06 A3027 RMK A01 T10401059  RH  087%=      5-min Rain = 0
KAM1 200532Z 19005KT M04/M06 A3027 RMK A01 T10391059  RH  086%=      5-min Rain = 0
KAM1 200533Z 19005KT M04/M06 A3027 RMK A01 T10381058  RH  086%=      5-min Rain = 0
KAM1 200534Z 20005KT M04/M06 A3027 RMK A01 T10381058  RH  086%=      5-min Rain = 0
KAM1 200535Z 20005KT M04/M06 A3027 RMK A01 T10371058  RH  085%=      5-min Rain = 0
KAM1 200536Z 20005KT M04/M06 A3028 RMK A01 T10371059  RH  085%=      5-min Rain = 0
KAM1 200537Z 20006KT M04/M06 A3027 RMK A01 T10371060  RH  084%=      5-min Rain = 0
KAM1 200538Z 19006KT M04/M06 A3027 RMK A01 T10361061  RH  083%=      5-min Rain = 0
KAM1 200539Z 18005KT M04/M06 A3026 RMK A01 T10371064  RH  082%=      5-min Rain = 0
KAM1 200540Z 17006KT M04/M07 A3026 RMK A01 T10381066  RH  081%=      5-min Rain = 0
KAM1 200541Z 17006KT M04/M07 A3025 RMK A01 T10381066  RH  081%=      5-min Rain = 0
KAM1 200542Z 17007KT M04/M07 A3025 RMK A01 T10391066  RH  081%=      5-min Rain = 0
KAM1 200543Z 17006KT M04/M07 A3026 RMK A01 T10411073  RH  079%=      5-min Rain = 0
KAM1 200544Z 17006KT M05/M08 A3026 RMK A01 T10451076  RH  079%=      5-min Rain = 0
KAM1 200545Z 17005KT M05/M07 A3026 RMK A01 T10471074  RH  081%=      5-min Rain = 0
KAM1 200546Z 17005KT M05/M07 A3026 RMK A01 T10461070  RH  083%=      5-min Rain = 0
KAM1 200547Z 17005KT M05/M07 A3026 RMK A01 T10451067  RH  085%=      5-min Rain = 0
KAM1 200548Z 17005KT M04/M07 A3026 RMK A01 T10431065  RH  085%=      5-min Rain = 0
KAM1 200549Z 17004KT M04/M06 A3026 RMK A01 T10421064  RH  084%=      5-min Rain = 0
KAM1 200550Z 17004KT M04/M07 A3026 RMK A01 T10411065  RH  084%=      5-min Rain = 0
KAM1 200551Z 17004KT M04/M07 A3026 RMK A01 T10411065  RH  083%=      5-min Rain = 0
KAM1 200552Z 17004KT M04/M07 A3026 RMK A01 T10401065  RH  083%=      5-min Rain = 0
KAM1 200553Z 18005KT M04/M07 A3026 RMK A01 T10401066  RH  082%=      5-min Rain = 0
KAM1 200554Z 17005KT M04/M07 A3026 RMK A01 T10401065  RH  083%=      5-min Rain = 0
KAM1 200555Z 17006KT M04/M07 A3025 RMK A01 T10401065  RH  083%=      5-min Rain = 0
KAM1 200556Z 17006KT M04/M07 A3025 RMK A01 T10401065  RH  083%=      5-min Rain = 0
KAM1 200557Z 18006KT M04/M07 A3025 RMK A01 T10411067  RH  082%=      5-min Rain = 0
KAM1 200558Z 18007KT M04/M07 A3025 RMK A01 T10431070  RH  081%=      5-min Rain = 0
KAM1 200559Z 18006KT M05/M07 A3025 RMK A01 T10451071  RH  082%=      5-min Rain = 0

Page generated in 0.0332 seconds.